<?xml version="1.0" encoding="UTF-8"?>
<gpx xmlns="http://www.topografix.com/GPX/1/1" xmlns:xsi="http://www.w3.org/2001/XMLSchema-instance" version="1.1" xsi:schemaLocation="http://www.topografix.com/GPX/1/1 http://www.topografix.com/GPX/1/1/gpx.xsd">
  <metadata>
    <name>Tri Empuriabrava</name>
  </metadata>
  <trk>
    <name>Tri Empuriabrava</name>
    <trkseg>
      <trkpt lat="42.243443" lon="3.129193">
        <ele>3.593386</ele>
        <time>2021-05-23T08:08:00.000Z</time>
      </trkpt>
      <trkpt lat="42.243865" lon="3.129586">
        <ele>3.59339</ele>
        <time>2021-05-23T08:08:06.000Z</time>
      </trkpt>
      <trkpt lat="42.243971" lon="3.129672">
        <ele>3.593377</ele>
        <time>2021-05-23T08:08:07.000Z</time>
      </trkpt>
      <trkpt lat="42.24475" lon="3.130418">
        <ele>3.639022</ele>
        <time>2021-05-23T08:08:18.000Z</time>
      </trkpt>
      <trkpt lat="42.245607" lon="3.131273">
        <ele>3.708231</ele>
        <time>2021-05-23T08:08:30.000Z</time>
      </trkpt>
      <trkpt lat="42.245676" lon="3.131345">
        <ele>3.712472</ele>
        <time>2021-05-23T08:08:31.000Z</time>
      </trkpt>
      <trkpt lat="42.247188" lon="3.132969">
        <ele>3.775651</ele>
        <time>2021-05-23T08:08:52.000Z</time>
      </trkpt>
      <trkpt lat="42.247367" lon="3.133189">
        <ele>3.76427</ele>
        <time>2021-05-23T08:08:55.000Z</time>
      </trkpt>
      <trkpt lat="42.247477" lon="3.133042">
        <ele>3.7574</ele>
        <time>2021-05-23T08:08:57.000Z</time>
      </trkpt>
      <trkpt lat="42.247491" lon="3.133025">
        <ele>3.756366</ele>
        <time>2021-05-23T08:08:57.000Z</time>
      </trkpt>
      <trkpt lat="42.247487" lon="3.133011">
        <ele>3.756382</ele>
        <time>2021-05-23T08:08:57.000Z</time>
      </trkpt>
      <trkpt lat="42.24729" lon="3.132786">
        <ele>3.744951</ele>
        <time>2021-05-23T08:09:00.000Z</time>
      </trkpt>
      <trkpt lat="42.245791" lon="3.131162">
        <ele>3.655727</ele>
        <time>2021-05-23T08:09:21.000Z</time>
      </trkpt>
      <trkpt lat="42.245748" lon="3.131135">
        <ele>3.654176</ele>
        <time>2021-05-23T08:09:22.000Z</time>
      </trkpt>
      <trkpt lat="42.245718" lon="3.131086">
        <ele>3.651442</ele>
        <time>2021-05-23T08:09:23.000Z</time>
      </trkpt>
      <trkpt lat="42.244857" lon="3.130229">
        <ele>3.539229</ele>
        <time>2021-05-23T08:09:35.000Z</time>
      </trkpt>
      <trkpt lat="42.244729" lon="3.130104">
        <ele>3.503052</ele>
        <time>2021-05-23T08:09:37.000Z</time>
      </trkpt>
      <trkpt lat="42.244073" lon="3.129484">
        <ele>3.319934</ele>
        <time>2021-05-23T08:09:46.000Z</time>
      </trkpt>
      <trkpt lat="42.243984" lon="3.129376">
        <ele>3.292128</ele>
        <time>2021-05-23T08:09:47.000Z</time>
      </trkpt>
      <trkpt lat="42.243918" lon="3.129309">
        <ele>3.275654</ele>
        <time>2021-05-23T08:09:48.000Z</time>
      </trkpt>
      <trkpt lat="42.243787" lon="3.129173">
        <ele>3.236292</ele>
        <time>2021-05-23T08:09:50.000Z</time>
      </trkpt>
      <trkpt lat="42.243613" lon="3.12901">
        <ele>3.18834</ele>
        <time>2021-05-23T08:09:52.000Z</time>
      </trkpt>
      <trkpt lat="42.243554" lon="3.128971">
        <ele>3.168071</ele>
        <time>2021-05-23T08:09:53.000Z</time>
      </trkpt>
      <trkpt lat="42.243459" lon="3.128881">
        <ele>3.1395</ele>
        <time>2021-05-23T08:09:54.000Z</time>
      </trkpt>
      <trkpt lat="42.243291" lon="3.128742">
        <ele>3.094496</ele>
        <time>2021-05-23T08:09:56.000Z</time>
      </trkpt>
      <trkpt lat="42.242911" lon="3.128391">
        <ele>2.978908</ele>
        <time>2021-05-23T08:10:01.000Z</time>
      </trkpt>
      <trkpt lat="42.242671" lon="3.128176">
        <ele>2.908407</ele>
        <time>2021-05-23T08:10:04.000Z</time>
      </trkpt>
      <trkpt lat="42.242603" lon="3.128105">
        <ele>2.885706</ele>
        <time>2021-05-23T08:10:05.000Z</time>
      </trkpt>
      <trkpt lat="42.241847" lon="3.127458">
        <ele>2.848061</ele>
        <time>2021-05-23T08:10:15.000Z</time>
      </trkpt>
      <trkpt lat="42.24177" lon="3.127392">
        <ele>2.870999</ele>
        <time>2021-05-23T08:10:16.000Z</time>
      </trkpt>
      <trkpt lat="42.241723" lon="3.127349">
        <ele>2.880969</ele>
        <time>2021-05-23T08:10:17.000Z</time>
      </trkpt>
      <trkpt lat="42.241677" lon="3.127325">
        <ele>2.891425</ele>
        <time>2021-05-23T08:10:18.000Z</time>
      </trkpt>
      <trkpt lat="42.241581" lon="3.127246">
        <ele>2.916621</ele>
        <time>2021-05-23T08:10:19.000Z</time>
      </trkpt>
      <trkpt lat="42.239953" lon="3.125929">
        <ele>3.361486</ele>
        <time>2021-05-23T08:10:40.000Z</time>
      </trkpt>
      <trkpt lat="42.239835" lon="3.12582">
        <ele>3.400549</ele>
        <time>2021-05-23T08:10:42.000Z</time>
      </trkpt>
      <trkpt lat="42.239629" lon="3.125633">
        <ele>3.46027</ele>
        <time>2021-05-23T08:10:45.000Z</time>
      </trkpt>
      <trkpt lat="42.239416" lon="3.12549">
        <ele>3.51976</ele>
        <time>2021-05-23T08:10:48.000Z</time>
      </trkpt>
      <trkpt lat="42.239306" lon="3.125412">
        <ele>3.552233</ele>
        <time>2021-05-23T08:10:49.000Z</time>
      </trkpt>
      <trkpt lat="42.23918" lon="3.125307">
        <ele>3.58677</ele>
        <time>2021-05-23T08:10:51.000Z</time>
      </trkpt>
      <trkpt lat="42.238041" lon="3.124471">
        <ele>3.669906</ele>
        <time>2021-05-23T08:11:05.000Z</time>
      </trkpt>
      <trkpt lat="42.23797" lon="3.124422">
        <ele>3.674211</ele>
        <time>2021-05-23T08:11:06.000Z</time>
      </trkpt>
      <trkpt lat="42.237849" lon="3.124311">
        <ele>3.680347</ele>
        <time>2021-05-23T08:11:08.000Z</time>
      </trkpt>
      <trkpt lat="42.23776" lon="3.124142">
        <ele>3.687928</ele>
        <time>2021-05-23T08:11:10.000Z</time>
      </trkpt>
      <trkpt lat="42.237733" lon="3.124015">
        <ele>3.692735</ele>
        <time>2021-05-23T08:11:11.000Z</time>
      </trkpt>
      <trkpt lat="42.237956" lon="3.123437">
        <ele>3.546084</ele>
        <time>2021-05-23T08:11:16.000Z</time>
      </trkpt>
      <trkpt lat="42.23863" lon="3.121844">
        <ele>2.948027</ele>
        <time>2021-05-23T08:11:31.000Z</time>
      </trkpt>
      <trkpt lat="42.238704" lon="3.121649">
        <ele>2.853923</ele>
        <time>2021-05-23T08:11:33.000Z</time>
      </trkpt>
      <trkpt lat="42.238816" lon="3.121396">
        <ele>2.698574</ele>
        <time>2021-05-23T08:11:35.000Z</time>
      </trkpt>
      <trkpt lat="42.238899" lon="3.121203">
        <ele>2.571893</ele>
        <time>2021-05-23T08:11:37.000Z</time>
      </trkpt>
      <trkpt lat="42.23931" lon="3.120253">
        <ele>1.980611</ele>
        <time>2021-05-23T08:11:46.000Z</time>
      </trkpt>
      <trkpt lat="42.239462" lon="3.119882">
        <ele>1.751115</ele>
        <time>2021-05-23T08:11:49.000Z</time>
      </trkpt>
      <trkpt lat="42.239662" lon="3.119363">
        <ele>1.630783</ele>
        <time>2021-05-23T08:11:54.000Z</time>
      </trkpt>
      <trkpt lat="42.240199" lon="3.118091">
        <ele>1.799459</ele>
        <time>2021-05-23T08:12:06.000Z</time>
      </trkpt>
      <trkpt lat="42.240652" lon="3.117026">
        <ele>2.019524</ele>
        <time>2021-05-23T08:12:16.000Z</time>
      </trkpt>
      <trkpt lat="42.24129" lon="3.115449">
        <ele>2.484411</ele>
        <time>2021-05-23T08:12:31.000Z</time>
      </trkpt>
      <trkpt lat="42.242349" lon="3.112965">
        <ele>2.543048</ele>
        <time>2021-05-23T08:12:55.000Z</time>
      </trkpt>
      <trkpt lat="42.242762" lon="3.11195">
        <ele>2.765597</ele>
        <time>2021-05-23T08:13:05.000Z</time>
      </trkpt>
      <trkpt lat="42.243177" lon="3.110962">
        <ele>3.002916</ele>
        <time>2021-05-23T08:13:14.000Z</time>
      </trkpt>
      <trkpt lat="42.243979" lon="3.108993">
        <ele>3.610281</ele>
        <time>2021-05-23T08:13:32.000Z</time>
      </trkpt>
      <trkpt lat="42.244258" lon="3.108334">
        <ele>3.875579</ele>
        <time>2021-05-23T08:13:38.000Z</time>
      </trkpt>
      <trkpt lat="42.244542" lon="3.107781">
        <ele>4.118537</ele>
        <time>2021-05-23T08:13:44.000Z</time>
      </trkpt>
      <trkpt lat="42.24478" lon="3.107497">
        <ele>4.267283</ele>
        <time>2021-05-23T08:13:48.000Z</time>
      </trkpt>
      <trkpt lat="42.24548" lon="3.106763">
        <ele>4.565091</ele>
        <time>2021-05-23T08:13:58.000Z</time>
      </trkpt>
      <trkpt lat="42.246335" lon="3.105674">
        <ele>4.829676</ele>
        <time>2021-05-23T08:14:11.000Z</time>
      </trkpt>
      <trkpt lat="42.2464" lon="3.105552">
        <ele>4.856998</ele>
        <time>2021-05-23T08:14:12.000Z</time>
      </trkpt>
      <trkpt lat="42.246498" lon="3.105409">
        <ele>4.840971</ele>
        <time>2021-05-23T08:14:14.000Z</time>
      </trkpt>
      <trkpt lat="42.246503" lon="3.105407">
        <ele>4.840983</ele>
        <time>2021-05-23T08:14:14.000Z</time>
      </trkpt>
      <trkpt lat="42.246802" lon="3.104925">
        <ele>4.782538</ele>
        <time>2021-05-23T08:14:19.000Z</time>
      </trkpt>
      <trkpt lat="42.246805" lon="3.104929">
        <ele>4.782541</ele>
        <time>2021-05-23T08:14:19.000Z</time>
      </trkpt>
      <trkpt lat="42.246804" lon="3.104926">
        <ele>4.782542</ele>
        <time>2021-05-23T08:14:19.000Z</time>
      </trkpt>
      <trkpt lat="42.24679" lon="3.10492">
        <ele>4.78217</ele>
        <time>2021-05-23T08:14:19.000Z</time>
      </trkpt>
      <trkpt lat="42.247472" lon="3.104315">
        <ele>4.68205</ele>
        <time>2021-05-23T08:14:28.000Z</time>
      </trkpt>
      <trkpt lat="42.247459" lon="3.104331">
        <ele>4.682038</ele>
        <time>2021-05-23T08:14:28.000Z</time>
      </trkpt>
      <trkpt lat="42.248162" lon="3.104028">
        <ele>4.576733</ele>
        <time>2021-05-23T08:14:36.000Z</time>
      </trkpt>
      <trkpt lat="42.248159" lon="3.104015">
        <ele>4.57674</ele>
        <time>2021-05-23T08:14:36.000Z</time>
      </trkpt>
      <trkpt lat="42.248727" lon="3.104023">
        <ele>4.483585</ele>
        <time>2021-05-23T08:14:42.000Z</time>
      </trkpt>
      <trkpt lat="42.248734" lon="3.104023">
        <ele>4.48359</ele>
        <time>2021-05-23T08:14:42.000Z</time>
      </trkpt>
      <trkpt lat="42.249423" lon="3.104246">
        <ele>4.36645</ele>
        <time>2021-05-23T08:14:50.000Z</time>
      </trkpt>
      <trkpt lat="42.249413" lon="3.104245">
        <ele>4.366442</ele>
        <time>2021-05-23T08:14:50.000Z</time>
      </trkpt>
      <trkpt lat="42.249959" lon="3.104674">
        <ele>4.205514</ele>
        <time>2021-05-23T08:14:57.000Z</time>
      </trkpt>
      <trkpt lat="42.249973" lon="3.104678">
        <ele>4.2055</ele>
        <time>2021-05-23T08:14:57.000Z</time>
      </trkpt>
      <trkpt lat="42.249967" lon="3.104678">
        <ele>4.205501</ele>
        <time>2021-05-23T08:14:57.000Z</time>
      </trkpt>
      <trkpt lat="42.250275" lon="3.104801">
        <ele>4.113303</ele>
        <time>2021-05-23T08:15:01.000Z</time>
      </trkpt>
      <trkpt lat="42.250312" lon="3.104771">
        <ele>4.103135</ele>
        <time>2021-05-23T08:15:01.000Z</time>
      </trkpt>
      <trkpt lat="42.25074" lon="3.104504">
        <ele>3.965116</ele>
        <time>2021-05-23T08:15:06.000Z</time>
      </trkpt>
      <trkpt lat="42.251775" lon="3.104069">
        <ele>3.882391</ele>
        <time>2021-05-23T08:15:18.000Z</time>
      </trkpt>
      <trkpt lat="42.251912" lon="3.103958">
        <ele>3.898579</ele>
        <time>2021-05-23T08:15:20.000Z</time>
      </trkpt>
      <trkpt lat="42.251993" lon="3.103839">
        <ele>3.910215</ele>
        <time>2021-05-23T08:15:21.000Z</time>
      </trkpt>
      <trkpt lat="42.252067" lon="3.103636">
        <ele>3.928271</ele>
        <time>2021-05-23T08:15:23.000Z</time>
      </trkpt>
      <trkpt lat="42.252038" lon="3.103202">
        <ele>3.96191</ele>
        <time>2021-05-23T08:15:27.000Z</time>
      </trkpt>
      <trkpt lat="42.252022" lon="3.102768">
        <ele>3.99511</ele>
        <time>2021-05-23T08:15:31.000Z</time>
      </trkpt>
      <trkpt lat="42.251995" lon="3.101772">
        <ele>4.332203</ele>
        <time>2021-05-23T08:15:39.000Z</time>
      </trkpt>
      <trkpt lat="42.251985" lon="3.101297">
        <ele>4.524591</ele>
        <time>2021-05-23T08:15:43.000Z</time>
      </trkpt>
      <trkpt lat="42.251972" lon="3.100814">
        <ele>4.714999</ele>
        <time>2021-05-23T08:15:47.000Z</time>
      </trkpt>
      <trkpt lat="42.251951" lon="3.100124">
        <ele>4.97782</ele>
        <time>2021-05-23T08:15:53.000Z</time>
      </trkpt>
      <trkpt lat="42.251935" lon="3.099455">
        <ele>4.976659</ele>
        <time>2021-05-23T08:15:59.000Z</time>
      </trkpt>
      <trkpt lat="42.251928" lon="3.098711">
        <ele>4.975341</ele>
        <time>2021-05-23T08:16:05.000Z</time>
      </trkpt>
      <trkpt lat="42.251927" lon="3.098705">
        <ele>4.975344</ele>
        <time>2021-05-23T08:16:05.000Z</time>
      </trkpt>
      <trkpt lat="42.251915" lon="3.098257">
        <ele>4.974567</ele>
        <time>2021-05-23T08:16:09.000Z</time>
      </trkpt>
      <trkpt lat="42.251915" lon="3.097847">
        <ele>4.973842</ele>
        <time>2021-05-23T08:16:12.000Z</time>
      </trkpt>
      <trkpt lat="42.251908" lon="3.09772">
        <ele>4.970259</ele>
        <time>2021-05-23T08:16:13.000Z</time>
      </trkpt>
      <trkpt lat="42.251923" lon="3.097226">
        <ele>4.876201</ele>
        <time>2021-05-23T08:16:17.000Z</time>
      </trkpt>
      <trkpt lat="42.251983" lon="3.096893">
        <ele>4.807197</ele>
        <time>2021-05-23T08:16:20.000Z</time>
      </trkpt>
      <trkpt lat="42.252302" lon="3.095997">
        <ele>4.613316</ele>
        <time>2021-05-23T08:16:28.000Z</time>
      </trkpt>
      <trkpt lat="42.252503" lon="3.095418">
        <ele>4.508974</ele>
        <time>2021-05-23T08:16:33.000Z</time>
      </trkpt>
      <trkpt lat="42.252753" lon="3.094734">
        <ele>4.659695</ele>
        <time>2021-05-23T08:16:39.000Z</time>
      </trkpt>
      <trkpt lat="42.253354" lon="3.093056">
        <ele>4.99009</ele>
        <time>2021-05-23T08:16:54.000Z</time>
      </trkpt>
      <trkpt lat="42.254005" lon="3.091299">
        <ele>5.057801</ele>
        <time>2021-05-23T08:17:10.000Z</time>
      </trkpt>
      <trkpt lat="42.254368" lon="3.090221">
        <ele>5.039245</ele>
        <time>2021-05-23T08:17:20.000Z</time>
      </trkpt>
      <trkpt lat="42.255292" lon="3.087521">
        <ele>5.108649</ele>
        <time>2021-05-23T08:17:44.000Z</time>
      </trkpt>
      <trkpt lat="42.255459" lon="3.086982">
        <ele>5.151576</ele>
        <time>2021-05-23T08:17:49.000Z</time>
      </trkpt>
      <trkpt lat="42.255871" lon="3.086166">
        <ele>5.290711</ele>
        <time>2021-05-23T08:17:57.000Z</time>
      </trkpt>
      <trkpt lat="42.256141" lon="3.085797">
        <ele>5.38337</ele>
        <time>2021-05-23T08:18:01.000Z</time>
      </trkpt>
      <trkpt lat="42.256378" lon="3.085663">
        <ele>5.444198</ele>
        <time>2021-05-23T08:18:04.000Z</time>
      </trkpt>
      <trkpt lat="42.257063" lon="3.085372">
        <ele>5.612171</ele>
        <time>2021-05-23T08:18:12.000Z</time>
      </trkpt>
      <trkpt lat="42.257514" lon="3.085258">
        <ele>5.663874</ele>
        <time>2021-05-23T08:18:17.000Z</time>
      </trkpt>
      <trkpt lat="42.257975" lon="3.085175">
        <ele>5.717443</ele>
        <time>2021-05-23T08:18:22.000Z</time>
      </trkpt>
      <trkpt lat="42.257983" lon="3.085239">
        <ele>5.722555</ele>
        <time>2021-05-23T08:18:23.000Z</time>
      </trkpt>
      <trkpt lat="42.257999" lon="3.085289">
        <ele>5.727532</ele>
        <time>2021-05-23T08:18:23.000Z</time>
      </trkpt>
      <trkpt lat="42.258035" lon="3.08532">
        <ele>5.732541</ele>
        <time>2021-05-23T08:18:23.000Z</time>
      </trkpt>
      <trkpt lat="42.258075" lon="3.085344">
        <ele>5.737639</ele>
        <time>2021-05-23T08:18:23.000Z</time>
      </trkpt>
      <trkpt lat="42.258116" lon="3.085338">
        <ele>5.742575</ele>
        <time>2021-05-23T08:18:23.000Z</time>
      </trkpt>
      <trkpt lat="42.258159" lon="3.085326">
        <ele>5.747627</ele>
        <time>2021-05-23T08:18:23.000Z</time>
      </trkpt>
      <trkpt lat="42.258211" lon="3.085283">
        <ele>5.753041</ele>
        <time>2021-05-23T08:18:24.000Z</time>
      </trkpt>
      <trkpt lat="42.258238" lon="3.085239">
        <ele>5.758565</ele>
        <time>2021-05-23T08:18:24.000Z</time>
      </trkpt>
      <trkpt lat="42.258246" lon="3.085174">
        <ele>5.763975</ele>
        <time>2021-05-23T08:18:25.000Z</time>
      </trkpt>
      <trkpt lat="42.258247" lon="3.085112">
        <ele>5.768931</ele>
        <time>2021-05-23T08:18:26.000Z</time>
      </trkpt>
      <trkpt lat="42.258115" lon="3.084985">
        <ele>5.787534</ele>
        <time>2021-05-23T08:18:28.000Z</time>
      </trkpt>
      <trkpt lat="42.258068" lon="3.084994">
        <ele>5.792489</ele>
        <time>2021-05-23T08:18:29.000Z</time>
      </trkpt>
      <trkpt lat="42.258052" lon="3.084838">
        <ele>5.804801</ele>
        <time>2021-05-23T08:18:30.000Z</time>
      </trkpt>
      <trkpt lat="42.257881" lon="3.084223">
        <ele>5.836109</ele>
        <time>2021-05-23T08:18:35.000Z</time>
      </trkpt>
      <trkpt lat="42.257724" lon="3.083605">
        <ele>5.86281</ele>
        <time>2021-05-23T08:18:40.000Z</time>
      </trkpt>
      <trkpt lat="42.257727" lon="3.083584">
        <ele>5.863791</ele>
        <time>2021-05-23T08:18:40.000Z</time>
      </trkpt>
      <trkpt lat="42.257233" lon="3.081703">
        <ele>5.969347</ele>
        <time>2021-05-23T08:18:56.000Z</time>
      </trkpt>
      <trkpt lat="42.257234" lon="3.081685">
        <ele>5.970501</ele>
        <time>2021-05-23T08:18:56.000Z</time>
      </trkpt>
      <trkpt lat="42.257186" lon="3.081506">
        <ele>5.984991</ele>
        <time>2021-05-23T08:18:58.000Z</time>
      </trkpt>
      <trkpt lat="42.256983" lon="3.080685">
        <ele>6.047114</ele>
        <time>2021-05-23T08:19:05.000Z</time>
      </trkpt>
      <trkpt lat="42.25764" lon="3.079577">
        <ele>6.110267</ele>
        <time>2021-05-23T08:19:17.000Z</time>
      </trkpt>
      <trkpt lat="42.257973" lon="3.079061">
        <ele>6.128435</ele>
        <time>2021-05-23T08:19:23.000Z</time>
      </trkpt>
      <trkpt lat="42.258331" lon="3.078475">
        <ele>6.148583</ele>
        <time>2021-05-23T08:19:29.000Z</time>
      </trkpt>
      <trkpt lat="42.258566" lon="3.078076">
        <ele>6.064291</ele>
        <time>2021-05-23T08:19:33.000Z</time>
      </trkpt>
      <trkpt lat="42.258656" lon="3.078235">
        <ele>6.0212</ele>
        <time>2021-05-23T08:19:35.000Z</time>
      </trkpt>
      <trkpt lat="42.258694" lon="3.078329">
        <ele>5.997289</ele>
        <time>2021-05-23T08:19:36.000Z</time>
      </trkpt>
      <trkpt lat="42.258946" lon="3.079315">
        <ele>5.772212</ele>
        <time>2021-05-23T08:19:45.000Z</time>
      </trkpt>
      <trkpt lat="42.258952" lon="3.079324">
        <ele>5.769455</ele>
        <time>2021-05-23T08:19:45.000Z</time>
      </trkpt>
      <trkpt lat="42.258952" lon="3.079336">
        <ele>5.765977</ele>
        <time>2021-05-23T08:19:45.000Z</time>
      </trkpt>
      <trkpt lat="42.259145" lon="3.080587">
        <ele>5.523439</ele>
        <time>2021-05-23T08:19:56.000Z</time>
      </trkpt>
      <trkpt lat="42.259139" lon="3.080615">
        <ele>5.51904</ele>
        <time>2021-05-23T08:19:56.000Z</time>
      </trkpt>
      <trkpt lat="42.259173" lon="3.080806">
        <ele>5.48706</ele>
        <time>2021-05-23T08:19:58.000Z</time>
      </trkpt>
      <trkpt lat="42.259181" lon="3.081156">
        <ele>5.43059</ele>
        <time>2021-05-23T08:20:01.000Z</time>
      </trkpt>
      <trkpt lat="42.259214" lon="3.081591">
        <ele>5.360952</ele>
        <time>2021-05-23T08:20:05.000Z</time>
      </trkpt>
      <trkpt lat="42.259435" lon="3.082886">
        <ele>5.313509</ele>
        <time>2021-05-23T08:20:16.000Z</time>
      </trkpt>
      <trkpt lat="42.259461" lon="3.082925">
        <ele>5.320077</ele>
        <time>2021-05-23T08:20:16.000Z</time>
      </trkpt>
      <trkpt lat="42.259603" lon="3.083073">
        <ele>5.358436</ele>
        <time>2021-05-23T08:20:18.000Z</time>
      </trkpt>
      <trkpt lat="42.259617" lon="3.083097">
        <ele>5.363976</ele>
        <time>2021-05-23T08:20:18.000Z</time>
      </trkpt>
      <trkpt lat="42.259914" lon="3.083527">
        <ele>5.450655</ele>
        <time>2021-05-23T08:20:23.000Z</time>
      </trkpt>
      <trkpt lat="42.260213" lon="3.083803">
        <ele>5.5257</ele>
        <time>2021-05-23T08:20:27.000Z</time>
      </trkpt>
      <trkpt lat="42.261646" lon="3.084247">
        <ele>5.658743</ele>
        <time>2021-05-23T08:20:43.000Z</time>
      </trkpt>
      <trkpt lat="42.263396" lon="3.084191">
        <ele>5.343463</ele>
        <time>2021-05-23T08:21:02.000Z</time>
      </trkpt>
      <trkpt lat="42.263714" lon="3.084274">
        <ele>5.238003</ele>
        <time>2021-05-23T08:21:06.000Z</time>
      </trkpt>
      <trkpt lat="42.263896" lon="3.084411">
        <ele>5.16888</ele>
        <time>2021-05-23T08:21:08.000Z</time>
      </trkpt>
      <trkpt lat="42.264862" lon="3.08565">
        <ele>4.762168</ele>
        <time>2021-05-23T08:21:23.000Z</time>
      </trkpt>
      <trkpt lat="42.265479" lon="3.086663">
        <ele>4.573552</ele>
        <time>2021-05-23T08:21:34.000Z</time>
      </trkpt>
      <trkpt lat="42.266022" lon="3.087093">
        <ele>4.596049</ele>
        <time>2021-05-23T08:21:41.000Z</time>
      </trkpt>
      <trkpt lat="42.266994" lon="3.087715">
        <ele>4.582344</ele>
        <time>2021-05-23T08:21:53.000Z</time>
      </trkpt>
      <trkpt lat="42.268899" lon="3.088588">
        <ele>4.03204</ele>
        <time>2021-05-23T08:22:15.000Z</time>
      </trkpt>
      <trkpt lat="42.270262" lon="3.089775">
        <ele>3.356889</ele>
        <time>2021-05-23T08:22:33.000Z</time>
      </trkpt>
      <trkpt lat="42.270495" lon="3.089743">
        <ele>3.285101</ele>
        <time>2021-05-23T08:22:36.000Z</time>
      </trkpt>
      <trkpt lat="42.271051" lon="3.089463">
        <ele>3.106886</ele>
        <time>2021-05-23T08:22:43.000Z</time>
      </trkpt>
      <trkpt lat="42.271452" lon="3.089302">
        <ele>2.978875</ele>
        <time>2021-05-23T08:22:48.000Z</time>
      </trkpt>
      <trkpt lat="42.271697" lon="3.089291">
        <ele>2.903988</ele>
        <time>2021-05-23T08:22:51.000Z</time>
      </trkpt>
      <trkpt lat="42.271889" lon="3.089381">
        <ele>2.885906</ele>
        <time>2021-05-23T08:22:53.000Z</time>
      </trkpt>
      <trkpt lat="42.272024" lon="3.089626">
        <ele>2.891077</ele>
        <time>2021-05-23T08:22:56.000Z</time>
      </trkpt>
      <trkpt lat="42.273747" lon="3.093642">
        <ele>3.085436</ele>
        <time>2021-05-23T08:23:34.000Z</time>
      </trkpt>
      <trkpt lat="42.277612" lon="3.101658">
        <ele>3.480172</ele>
        <time>2021-05-23T08:24:53.000Z</time>
      </trkpt>
      <trkpt lat="42.277622" lon="3.101741">
        <ele>3.494441</ele>
        <time>2021-05-23T08:24:54.000Z</time>
      </trkpt>
      <trkpt lat="42.27765" lon="3.101896">
        <ele>3.519068</ele>
        <time>2021-05-23T08:24:55.000Z</time>
      </trkpt>
      <trkpt lat="42.277417" lon="3.104093">
        <ele>3.802949</ele>
        <time>2021-05-23T08:25:13.000Z</time>
      </trkpt>
      <trkpt lat="42.277407" lon="3.10423">
        <ele>3.752266</ele>
        <time>2021-05-23T08:25:14.000Z</time>
      </trkpt>
      <trkpt lat="42.277316" lon="3.104869">
        <ele>3.513757</ele>
        <time>2021-05-23T08:25:19.000Z</time>
      </trkpt>
      <trkpt lat="42.277204" lon="3.105335">
        <ele>3.340074</ele>
        <time>2021-05-23T08:25:23.000Z</time>
      </trkpt>
      <trkpt lat="42.276794" lon="3.106317">
        <ele>2.91667</ele>
        <time>2021-05-23T08:25:32.000Z</time>
      </trkpt>
      <trkpt lat="42.276196" lon="3.108918">
        <ele>1.966593</ele>
        <time>2021-05-23T08:25:54.000Z</time>
      </trkpt>
      <trkpt lat="42.276062" lon="3.109203">
        <ele>1.937368</ele>
        <time>2021-05-23T08:25:57.000Z</time>
      </trkpt>
      <trkpt lat="42.275446" lon="3.109562">
        <ele>1.862643</ele>
        <time>2021-05-23T08:26:04.000Z</time>
      </trkpt>
      <trkpt lat="42.275145" lon="3.109799">
        <ele>1.822134</ele>
        <time>2021-05-23T08:26:08.000Z</time>
      </trkpt>
      <trkpt lat="42.275019" lon="3.110057">
        <ele>1.797364</ele>
        <time>2021-05-23T08:26:11.000Z</time>
      </trkpt>
      <trkpt lat="42.274887" lon="3.110469">
        <ele>1.769461</ele>
        <time>2021-05-23T08:26:15.000Z</time>
      </trkpt>
      <trkpt lat="42.274957" lon="3.110922">
        <ele>1.741822</ele>
        <time>2021-05-23T08:26:19.000Z</time>
      </trkpt>
      <trkpt lat="42.275949" lon="3.113591">
        <ele>1.388641</ele>
        <time>2021-05-23T08:26:44.000Z</time>
      </trkpt>
      <trkpt lat="42.276131" lon="3.114225">
        <ele>1.271</ele>
        <time>2021-05-23T08:26:50.000Z</time>
      </trkpt>
      <trkpt lat="42.276708" lon="3.115408">
        <ele>0.930314</ele>
        <time>2021-05-23T08:27:02.000Z</time>
      </trkpt>
      <trkpt lat="42.276852" lon="3.115596">
        <ele>0.861888</ele>
        <time>2021-05-23T08:27:04.000Z</time>
      </trkpt>
      <trkpt lat="42.277979" lon="3.116033">
        <ele>0.539052</ele>
        <time>2021-05-23T08:27:17.000Z</time>
      </trkpt>
      <trkpt lat="42.278159" lon="3.116083">
        <ele>0.511756</ele>
        <time>2021-05-23T08:27:19.000Z</time>
      </trkpt>
      <trkpt lat="42.279307" lon="3.116524">
        <ele>0.328148</ele>
        <time>2021-05-23T08:27:32.000Z</time>
      </trkpt>
      <trkpt lat="42.279549" lon="3.116639">
        <ele>0.26248</ele>
        <time>2021-05-23T08:27:35.000Z</time>
      </trkpt>
      <trkpt lat="42.280676" lon="3.117076">
        <ele>-0.038417</ele>
        <time>2021-05-23T08:27:48.000Z</time>
      </trkpt>
      <trkpt lat="42.280889" lon="3.117148">
        <ele>-0.090104</ele>
        <time>2021-05-23T08:27:50.000Z</time>
      </trkpt>
      <trkpt lat="42.282253" lon="3.1177">
        <ele>-0.245213</ele>
        <time>2021-05-23T08:28:06.000Z</time>
      </trkpt>
      <trkpt lat="42.283897" lon="3.118358">
        <ele>0.264602</ele>
        <time>2021-05-23T08:28:25.000Z</time>
      </trkpt>
      <trkpt lat="42.284285" lon="3.118596">
        <ele>0.468766</ele>
        <time>2021-05-23T08:28:30.000Z</time>
      </trkpt>
      <trkpt lat="42.285195" lon="3.119338">
        <ele>1.270258</ele>
        <time>2021-05-23T08:28:42.000Z</time>
      </trkpt>
      <trkpt lat="42.285571" lon="3.119658">
        <ele>1.639271</ele>
        <time>2021-05-23T08:28:47.000Z</time>
      </trkpt>
      <trkpt lat="42.28585" lon="3.119932">
        <ele>1.908587</ele>
        <time>2021-05-23T08:28:51.000Z</time>
      </trkpt>
      <trkpt lat="42.285865" lon="3.119966">
        <ele>1.94188</ele>
        <time>2021-05-23T08:28:51.000Z</time>
      </trkpt>
      <trkpt lat="42.286285" lon="3.120541">
        <ele>2.70038</ele>
        <time>2021-05-23T08:28:58.000Z</time>
      </trkpt>
      <trkpt lat="42.286289" lon="3.120541">
        <ele>2.700379</ele>
        <time>2021-05-23T08:28:58.000Z</time>
      </trkpt>
      <trkpt lat="42.287231" lon="3.121858">
        <ele>4.617856</ele>
        <time>2021-05-23T08:29:13.000Z</time>
      </trkpt>
      <trkpt lat="42.287433" lon="3.122109">
        <ele>5.155242</ele>
        <time>2021-05-23T08:29:16.000Z</time>
      </trkpt>
      <trkpt lat="42.2876" lon="3.12232">
        <ele>5.571156</ele>
        <time>2021-05-23T08:29:19.000Z</time>
      </trkpt>
      <trkpt lat="42.287763" lon="3.122485">
        <ele>5.961038</ele>
        <time>2021-05-23T08:29:21.000Z</time>
      </trkpt>
      <trkpt lat="42.288115" lon="3.122733">
        <ele>6.711094</ele>
        <time>2021-05-23T08:29:25.000Z</time>
      </trkpt>
      <trkpt lat="42.289063" lon="3.12341">
        <ele>8.637544</ele>
        <time>2021-05-23T08:29:37.000Z</time>
      </trkpt>
      <trkpt lat="42.289252" lon="3.123654">
        <ele>9.046088</ele>
        <time>2021-05-23T08:29:40.000Z</time>
      </trkpt>
      <trkpt lat="42.289622" lon="3.124213">
        <ele>9.932343</ele>
        <time>2021-05-23T08:29:46.000Z</time>
      </trkpt>
      <trkpt lat="42.290213" lon="3.125058">
        <ele>11.156963</ele>
        <time>2021-05-23T08:29:56.000Z</time>
      </trkpt>
      <trkpt lat="42.290367" lon="3.125249">
        <ele>11.405389</ele>
        <time>2021-05-23T08:29:58.000Z</time>
      </trkpt>
      <trkpt lat="42.290581" lon="3.125392">
        <ele>11.669817</ele>
        <time>2021-05-23T08:30:01.000Z</time>
      </trkpt>
      <trkpt lat="42.291625" lon="3.126003">
        <ele>12.939308</ele>
        <time>2021-05-23T08:30:14.000Z</time>
      </trkpt>
      <trkpt lat="42.29363" lon="3.127168">
        <ele>14.938379</ele>
        <time>2021-05-23T08:30:38.000Z</time>
      </trkpt>
      <trkpt lat="42.294438" lon="3.127644">
        <ele>15.900741</ele>
        <time>2021-05-23T08:30:48.000Z</time>
      </trkpt>
      <trkpt lat="42.294667" lon="3.127827">
        <ele>16.196987</ele>
        <time>2021-05-23T08:30:51.000Z</time>
      </trkpt>
      <trkpt lat="42.294917" lon="3.128151">
        <ele>16.710827</ele>
        <time>2021-05-23T08:30:55.000Z</time>
      </trkpt>
      <trkpt lat="42.296895" lon="3.130915">
        <ele>22.413953</ele>
        <time>2021-05-23T08:31:27.000Z</time>
      </trkpt>
      <trkpt lat="42.29719" lon="3.131408">
        <ele>23.408365</ele>
        <time>2021-05-23T08:31:32.000Z</time>
      </trkpt>
      <trkpt lat="42.299741" lon="3.13588">
        <ele>34.092535</ele>
        <time>2021-05-23T08:32:18.000Z</time>
      </trkpt>
      <trkpt lat="42.300599" lon="3.137374">
        <ele>36.829885</ele>
        <time>2021-05-23T08:32:34.000Z</time>
      </trkpt>
      <trkpt lat="42.300714" lon="3.137592">
        <ele>36.8177</ele>
        <time>2021-05-23T08:32:36.000Z</time>
      </trkpt>
      <trkpt lat="42.300292" lon="3.138027">
        <ele>36.785272</ele>
        <time>2021-05-23T08:32:42.000Z</time>
      </trkpt>
      <trkpt lat="42.300052" lon="3.138149">
        <ele>36.770434</ele>
        <time>2021-05-23T08:32:45.000Z</time>
      </trkpt>
      <trkpt lat="42.299634" lon="3.138006">
        <ele>36.744227</ele>
        <time>2021-05-23T08:32:50.000Z</time>
      </trkpt>
      <trkpt lat="42.29926" lon="3.138091">
        <ele>36.587045</ele>
        <time>2021-05-23T08:32:54.000Z</time>
      </trkpt>
      <trkpt lat="42.298898" lon="3.1383">
        <ele>35.76938</ele>
        <time>2021-05-23T08:32:58.000Z</time>
      </trkpt>
      <trkpt lat="42.298343" lon="3.138738">
        <ele>34.478534</ele>
        <time>2021-05-23T08:33:05.000Z</time>
      </trkpt>
      <trkpt lat="42.298006" lon="3.138887">
        <ele>33.787794</ele>
        <time>2021-05-23T08:33:09.000Z</time>
      </trkpt>
      <trkpt lat="42.297804" lon="3.138907">
        <ele>33.364692</ele>
        <time>2021-05-23T08:33:11.000Z</time>
      </trkpt>
      <trkpt lat="42.296654" lon="3.138637">
        <ele>30.803033</ele>
        <time>2021-05-23T08:33:24.000Z</time>
      </trkpt>
      <trkpt lat="42.296418" lon="3.13858">
        <ele>30.292169</ele>
        <time>2021-05-23T08:33:27.000Z</time>
      </trkpt>
      <trkpt lat="42.296261" lon="3.138575">
        <ele>29.933913</ele>
        <time>2021-05-23T08:33:29.000Z</time>
      </trkpt>
      <trkpt lat="42.294822" lon="3.138819">
        <ele>27.015489</ele>
        <time>2021-05-23T08:33:45.000Z</time>
      </trkpt>
      <trkpt lat="42.294325" lon="3.13878">
        <ele>26.059852</ele>
        <time>2021-05-23T08:33:51.000Z</time>
      </trkpt>
      <trkpt lat="42.29406" lon="3.138694">
        <ele>25.518243</ele>
        <time>2021-05-23T08:33:54.000Z</time>
      </trkpt>
      <trkpt lat="42.293171" lon="3.138123">
        <ele>23.294383</ele>
        <time>2021-05-23T08:34:05.000Z</time>
      </trkpt>
      <trkpt lat="42.293095" lon="3.138093">
        <ele>23.10172</ele>
        <time>2021-05-23T08:34:06.000Z</time>
      </trkpt>
      <trkpt lat="42.292255" lon="3.137848">
        <ele>21.126264</ele>
        <time>2021-05-23T08:34:16.000Z</time>
      </trkpt>
      <trkpt lat="42.29198" lon="3.137759">
        <ele>20.408</ele>
        <time>2021-05-23T08:34:19.000Z</time>
      </trkpt>
      <trkpt lat="42.290627" lon="3.137744">
        <ele>16.99616</ele>
        <time>2021-05-23T08:34:34.000Z</time>
      </trkpt>
      <trkpt lat="42.289764" lon="3.13784">
        <ele>15.20235</ele>
        <time>2021-05-23T08:34:44.000Z</time>
      </trkpt>
      <trkpt lat="42.289397" lon="3.137937">
        <ele>14.453231</ele>
        <time>2021-05-23T08:34:48.000Z</time>
      </trkpt>
      <trkpt lat="42.288956" lon="3.138097">
        <ele>13.520437</ele>
        <time>2021-05-23T08:34:53.000Z</time>
      </trkpt>
      <trkpt lat="42.288847" lon="3.138097">
        <ele>13.297377</ele>
        <time>2021-05-23T08:34:54.000Z</time>
      </trkpt>
      <trkpt lat="42.288655" lon="3.13807">
        <ele>13.010336</ele>
        <time>2021-05-23T08:34:56.000Z</time>
      </trkpt>
      <trkpt lat="42.288505" lon="3.137964">
        <ele>12.763439</ele>
        <time>2021-05-23T08:34:58.000Z</time>
      </trkpt>
      <trkpt lat="42.287959" lon="3.137402">
        <ele>11.716091</ele>
        <time>2021-05-23T08:35:06.000Z</time>
      </trkpt>
      <trkpt lat="42.287808" lon="3.137269">
        <ele>11.45029</ele>
        <time>2021-05-23T08:35:08.000Z</time>
      </trkpt>
      <trkpt lat="42.287637" lon="3.137133">
        <ele>11.163583</ele>
        <time>2021-05-23T08:35:10.000Z</time>
      </trkpt>
      <trkpt lat="42.285897" lon="3.136212">
        <ele>8.736234</ele>
        <time>2021-05-23T08:35:31.000Z</time>
      </trkpt>
      <trkpt lat="42.285142" lon="3.136015">
        <ele>7.972606</ele>
        <time>2021-05-23T08:35:40.000Z</time>
      </trkpt>
      <trkpt lat="42.283816" lon="3.135371">
        <ele>6.771939</ele>
        <time>2021-05-23T08:35:56.000Z</time>
      </trkpt>
      <trkpt lat="42.283695" lon="3.135343">
        <ele>6.702664</ele>
        <time>2021-05-23T08:35:57.000Z</time>
      </trkpt>
      <trkpt lat="42.283468" lon="3.135215">
        <ele>6.553975</ele>
        <time>2021-05-23T08:36:00.000Z</time>
      </trkpt>
      <trkpt lat="42.279874" lon="3.131845">
        <ele>3.587921</ele>
        <time>2021-05-23T08:36:49.000Z</time>
      </trkpt>
      <trkpt lat="42.279546" lon="3.131515">
        <ele>3.25251</ele>
        <time>2021-05-23T08:36:54.000Z</time>
      </trkpt>
      <trkpt lat="42.279192" lon="3.13129">
        <ele>2.88738</ele>
        <time>2021-05-23T08:36:58.000Z</time>
      </trkpt>
      <trkpt lat="42.278775" lon="3.131275">
        <ele>2.472772</ele>
        <time>2021-05-23T08:37:03.000Z</time>
      </trkpt>
      <trkpt lat="42.277896" lon="3.131714">
        <ele>1.557347</ele>
        <time>2021-05-23T08:37:13.000Z</time>
      </trkpt>
      <trkpt lat="42.277405" lon="3.131893">
        <ele>1.47672</ele>
        <time>2021-05-23T08:37:19.000Z</time>
      </trkpt>
      <trkpt lat="42.276916" lon="3.131964">
        <ele>1.636083</ele>
        <time>2021-05-23T08:37:24.000Z</time>
      </trkpt>
      <trkpt lat="42.27582" lon="3.131936">
        <ele>2.042856</ele>
        <time>2021-05-23T08:37:36.000Z</time>
      </trkpt>
      <trkpt lat="42.275138" lon="3.132307">
        <ele>2.58447</ele>
        <time>2021-05-23T08:37:44.000Z</time>
      </trkpt>
      <trkpt lat="42.274968" lon="3.132355">
        <ele>2.718574</ele>
        <time>2021-05-23T08:37:46.000Z</time>
      </trkpt>
      <trkpt lat="42.274697" lon="3.132303">
        <ele>2.915961</ele>
        <time>2021-05-23T08:37:49.000Z</time>
      </trkpt>
      <trkpt lat="42.274262" lon="3.132009">
        <ele>3.274412</ele>
        <time>2021-05-23T08:37:54.000Z</time>
      </trkpt>
      <trkpt lat="42.274119" lon="3.131957">
        <ele>3.345812</ele>
        <time>2021-05-23T08:37:56.000Z</time>
      </trkpt>
      <trkpt lat="42.273971" lon="3.132013">
        <ele>3.412159</ele>
        <time>2021-05-23T08:37:58.000Z</time>
      </trkpt>
      <trkpt lat="42.273001" lon="3.132912">
        <ele>3.916157</ele>
        <time>2021-05-23T08:38:11.000Z</time>
      </trkpt>
      <trkpt lat="42.272891" lon="3.133026">
        <ele>3.97104</ele>
        <time>2021-05-23T08:38:13.000Z</time>
      </trkpt>
      <trkpt lat="42.272767" lon="3.133352">
        <ele>4.061479</ele>
        <time>2021-05-23T08:38:16.000Z</time>
      </trkpt>
      <trkpt lat="42.27263" lon="3.133987">
        <ele>4.066694</ele>
        <time>2021-05-23T08:38:21.000Z</time>
      </trkpt>
      <trkpt lat="42.272703" lon="3.13444">
        <ele>4.070484</ele>
        <time>2021-05-23T08:38:25.000Z</time>
      </trkpt>
      <trkpt lat="42.272696" lon="3.134478">
        <ele>4.0708</ele>
        <time>2021-05-23T08:38:25.000Z</time>
      </trkpt>
      <trkpt lat="42.272699" lon="3.134503">
        <ele>4.070934</ele>
        <time>2021-05-23T08:38:25.000Z</time>
      </trkpt>
      <trkpt lat="42.272706" lon="3.134492">
        <ele>4.07109</ele>
        <time>2021-05-23T08:38:25.000Z</time>
      </trkpt>
      <trkpt lat="42.272703" lon="3.134445">
        <ele>4.071401</ele>
        <time>2021-05-23T08:38:25.000Z</time>
      </trkpt>
      <trkpt lat="42.27263" lon="3.133976">
        <ele>4.075198</ele>
        <time>2021-05-23T08:38:29.000Z</time>
      </trkpt>
      <trkpt lat="42.272774" lon="3.133349">
        <ele>4.073579</ele>
        <time>2021-05-23T08:38:34.000Z</time>
      </trkpt>
      <trkpt lat="42.272895" lon="3.133016">
        <ele>3.959769</ele>
        <time>2021-05-23T08:38:37.000Z</time>
      </trkpt>
      <trkpt lat="42.272987" lon="3.132902">
        <ele>3.907039</ele>
        <time>2021-05-23T08:38:38.000Z</time>
      </trkpt>
      <trkpt lat="42.273965" lon="3.132007">
        <ele>3.422751</ele>
        <time>2021-05-23T08:38:51.000Z</time>
      </trkpt>
      <trkpt lat="42.274126" lon="3.131968">
        <ele>3.359001</ele>
        <time>2021-05-23T08:38:53.000Z</time>
      </trkpt>
      <trkpt lat="42.274272" lon="3.131992">
        <ele>3.263174</ele>
        <time>2021-05-23T08:38:55.000Z</time>
      </trkpt>
      <trkpt lat="42.27469" lon="3.1323">
        <ele>2.907877</ele>
        <time>2021-05-23T08:39:00.000Z</time>
      </trkpt>
      <trkpt lat="42.274954" lon="3.132357">
        <ele>2.712216</ele>
        <time>2021-05-23T08:39:03.000Z</time>
      </trkpt>
      <trkpt lat="42.275131" lon="3.132319">
        <ele>2.579265</ele>
        <time>2021-05-23T08:39:05.000Z</time>
      </trkpt>
      <trkpt lat="42.275812" lon="3.13195">
        <ele>2.042409</ele>
        <time>2021-05-23T08:39:13.000Z</time>
      </trkpt>
      <trkpt lat="42.276923" lon="3.131962">
        <ele>1.619161</ele>
        <time>2021-05-23T08:39:25.000Z</time>
      </trkpt>
      <trkpt lat="42.277398" lon="3.131903">
        <ele>1.436625</ele>
        <time>2021-05-23T08:39:30.000Z</time>
      </trkpt>
      <trkpt lat="42.277909" lon="3.131721">
        <ele>1.602636</ele>
        <time>2021-05-23T08:39:36.000Z</time>
      </trkpt>
      <trkpt lat="42.278774" lon="3.131262">
        <ele>2.478703</ele>
        <time>2021-05-23T08:39:46.000Z</time>
      </trkpt>
      <trkpt lat="42.279206" lon="3.13129">
        <ele>2.875474</ele>
        <time>2021-05-23T08:39:51.000Z</time>
      </trkpt>
      <trkpt lat="42.27956" lon="3.131528">
        <ele>3.19717</ele>
        <time>2021-05-23T08:39:55.000Z</time>
      </trkpt>
      <trkpt lat="42.279867" lon="3.131845">
        <ele>3.488777</ele>
        <time>2021-05-23T08:39:59.000Z</time>
      </trkpt>
      <trkpt lat="42.283482" lon="3.13521">
        <ele>6.540065</ele>
        <time>2021-05-23T08:40:48.000Z</time>
      </trkpt>
      <trkpt lat="42.283703" lon="3.135335">
        <ele>6.691467</ele>
        <time>2021-05-23T08:40:51.000Z</time>
      </trkpt>
      <trkpt lat="42.28382" lon="3.135371">
        <ele>6.761997</ele>
        <time>2021-05-23T08:40:52.000Z</time>
      </trkpt>
      <trkpt lat="42.285144" lon="3.136005">
        <ele>7.964824</ele>
        <time>2021-05-23T08:41:08.000Z</time>
      </trkpt>
      <trkpt lat="42.285891" lon="3.136211">
        <ele>8.74876</ele>
        <time>2021-05-23T08:41:16.000Z</time>
      </trkpt>
      <trkpt lat="42.287636" lon="3.137144">
        <ele>11.168892</ele>
        <time>2021-05-23T08:41:37.000Z</time>
      </trkpt>
      <trkpt lat="42.287811" lon="3.137254">
        <ele>11.452229</ele>
        <time>2021-05-23T08:41:39.000Z</time>
      </trkpt>
      <trkpt lat="42.287952" lon="3.137388">
        <ele>11.714911</ele>
        <time>2021-05-23T08:41:41.000Z</time>
      </trkpt>
      <trkpt lat="42.288516" lon="3.137956">
        <ele>12.749929</ele>
        <time>2021-05-23T08:41:49.000Z</time>
      </trkpt>
      <trkpt lat="42.288648" lon="3.138065">
        <ele>12.993908</ele>
        <time>2021-05-23T08:41:51.000Z</time>
      </trkpt>
      <trkpt lat="42.288839" lon="3.138112">
        <ele>13.303127</ele>
        <time>2021-05-23T08:41:53.000Z</time>
      </trkpt>
      <trkpt lat="42.288968" lon="3.138093">
        <ele>13.543224</ele>
        <time>2021-05-23T08:41:54.000Z</time>
      </trkpt>
      <trkpt lat="42.289393" lon="3.137926">
        <ele>14.46266</ele>
        <time>2021-05-23T08:41:59.000Z</time>
      </trkpt>
      <trkpt lat="42.289758" lon="3.13785">
        <ele>15.20103</ele>
        <time>2021-05-23T08:42:03.000Z</time>
      </trkpt>
      <trkpt lat="42.290621" lon="3.137732">
        <ele>16.994354</ele>
        <time>2021-05-23T08:42:13.000Z</time>
      </trkpt>
      <trkpt lat="42.291991" lon="3.137771">
        <ele>20.410047</ele>
        <time>2021-05-23T08:42:28.000Z</time>
      </trkpt>
      <trkpt lat="42.292272" lon="3.137852">
        <ele>21.126241</ele>
        <time>2021-05-23T08:42:31.000Z</time>
      </trkpt>
      <trkpt lat="42.29309" lon="3.138093">
        <ele>23.09886</ele>
        <time>2021-05-23T08:42:40.000Z</time>
      </trkpt>
      <trkpt lat="42.29318" lon="3.138134">
        <ele>23.293594</ele>
        <time>2021-05-23T08:42:41.000Z</time>
      </trkpt>
      <trkpt lat="42.294071" lon="3.138691">
        <ele>25.533068</ele>
        <time>2021-05-23T08:42:52.000Z</time>
      </trkpt>
      <trkpt lat="42.294319" lon="3.138784">
        <ele>26.055107</ele>
        <time>2021-05-23T08:42:55.000Z</time>
      </trkpt>
      <trkpt lat="42.294817" lon="3.138816">
        <ele>27.009961</ele>
        <time>2021-05-23T08:43:01.000Z</time>
      </trkpt>
      <trkpt lat="42.29625" lon="3.138585">
        <ele>29.943785</ele>
        <time>2021-05-23T08:43:17.000Z</time>
      </trkpt>
      <trkpt lat="42.29643" lon="3.138577">
        <ele>30.300114</ele>
        <time>2021-05-23T08:43:19.000Z</time>
      </trkpt>
      <trkpt lat="42.296643" lon="3.138643">
        <ele>30.808242</ele>
        <time>2021-05-23T08:43:21.000Z</time>
      </trkpt>
      <trkpt lat="42.297798" lon="3.138914">
        <ele>33.375549</ele>
        <time>2021-05-23T08:43:34.000Z</time>
      </trkpt>
      <trkpt lat="42.298006" lon="3.138896">
        <ele>33.834802</ele>
        <time>2021-05-23T08:43:36.000Z</time>
      </trkpt>
      <trkpt lat="42.298333" lon="3.13875">
        <ele>34.584554</ele>
        <time>2021-05-23T08:43:40.000Z</time>
      </trkpt>
      <trkpt lat="42.298887" lon="3.138289">
        <ele>35.985698</ele>
        <time>2021-05-23T08:43:47.000Z</time>
      </trkpt>
      <trkpt lat="42.29927" lon="3.13808">
        <ele>36.877934</ele>
        <time>2021-05-23T08:43:52.000Z</time>
      </trkpt>
      <trkpt lat="42.299636" lon="3.138004">
        <ele>37.800242</ele>
        <time>2021-05-23T08:43:56.000Z</time>
      </trkpt>
      <trkpt lat="42.300046" lon="3.138149">
        <ele>38.904553</ele>
        <time>2021-05-23T08:44:01.000Z</time>
      </trkpt>
      <trkpt lat="42.30029" lon="3.138039">
        <ele>39.530182</ele>
        <time>2021-05-23T08:44:04.000Z</time>
      </trkpt>
      <trkpt lat="42.30072" lon="3.137601">
        <ele>40.896518</ele>
        <time>2021-05-23T08:44:10.000Z</time>
      </trkpt>
      <trkpt lat="42.301192" lon="3.138367">
        <ele>42.817813</ele>
        <time>2021-05-23T08:44:18.000Z</time>
      </trkpt>
      <trkpt lat="42.30132" lon="3.138533">
        <ele>43.277489</ele>
        <time>2021-05-23T08:44:20.000Z</time>
      </trkpt>
      <trkpt lat="42.301439" lon="3.138613">
        <ele>43.637128</ele>
        <time>2021-05-23T08:44:21.000Z</time>
      </trkpt>
      <trkpt lat="42.302256" lon="3.138894">
        <ele>45.836817</ele>
        <time>2021-05-23T08:44:30.000Z</time>
      </trkpt>
      <trkpt lat="42.302363" lon="3.138899">
        <ele>46.149651</ele>
        <time>2021-05-23T08:44:31.000Z</time>
      </trkpt>
      <trkpt lat="42.302784" lon="3.138838">
        <ele>47.201828</ele>
        <time>2021-05-23T08:44:36.000Z</time>
      </trkpt>
      <trkpt lat="42.303069" lon="3.13892">
        <ele>47.954559</ele>
        <time>2021-05-23T08:44:39.000Z</time>
      </trkpt>
      <trkpt lat="42.303154" lon="3.138993">
        <ele>48.204106</ele>
        <time>2021-05-23T08:44:40.000Z</time>
      </trkpt>
      <trkpt lat="42.303194" lon="3.139069">
        <ele>48.379648</ele>
        <time>2021-05-23T08:44:41.000Z</time>
      </trkpt>
      <trkpt lat="42.303501" lon="3.140061">
        <ele>50.386909</ele>
        <time>2021-05-23T08:44:50.000Z</time>
      </trkpt>
      <trkpt lat="42.303734" lon="3.14047">
        <ele>51.508463</ele>
        <time>2021-05-23T08:44:54.000Z</time>
      </trkpt>
      <trkpt lat="42.304953" lon="3.142418">
        <ele>56.84024</ele>
        <time>2021-05-23T08:45:15.000Z</time>
      </trkpt>
      <trkpt lat="42.305443" lon="3.142935">
        <ele>57.689241</ele>
        <time>2021-05-23T08:45:22.000Z</time>
      </trkpt>
      <trkpt lat="42.305897" lon="3.143329">
        <ele>58.399184</ele>
        <time>2021-05-23T08:45:28.000Z</time>
      </trkpt>
      <trkpt lat="42.305901" lon="3.143328">
        <ele>58.424552</ele>
        <time>2021-05-23T08:45:28.000Z</time>
      </trkpt>
      <trkpt lat="42.305899" lon="3.143327">
        <ele>58.449932</ele>
        <time>2021-05-23T08:45:28.000Z</time>
      </trkpt>
      <trkpt lat="42.305456" lon="3.142934">
        <ele>58.147554</ele>
        <time>2021-05-23T08:45:34.000Z</time>
      </trkpt>
      <trkpt lat="42.30497" lon="3.142415">
        <ele>56.721553</ele>
        <time>2021-05-23T08:45:41.000Z</time>
      </trkpt>
      <trkpt lat="42.303739" lon="3.140463">
        <ele>51.645638</ele>
        <time>2021-05-23T08:46:02.000Z</time>
      </trkpt>
      <trkpt lat="42.303514" lon="3.140055">
        <ele>50.508891</ele>
        <time>2021-05-23T08:46:06.000Z</time>
      </trkpt>
      <trkpt lat="42.303184" lon="3.139064">
        <ele>48.273882</ele>
        <time>2021-05-23T08:46:15.000Z</time>
      </trkpt>
      <trkpt lat="42.303148" lon="3.138981">
        <ele>48.096107</ele>
        <time>2021-05-23T08:46:16.000Z</time>
      </trkpt>
      <trkpt lat="42.303067" lon="3.13891">
        <ele>47.84342</ele>
        <time>2021-05-23T08:46:17.000Z</time>
      </trkpt>
      <trkpt lat="42.30279" lon="3.138821">
        <ele>47.08115</ele>
        <time>2021-05-23T08:46:20.000Z</time>
      </trkpt>
      <trkpt lat="42.30237" lon="3.138898">
        <ele>46.015663</ele>
        <time>2021-05-23T08:46:25.000Z</time>
      </trkpt>
      <trkpt lat="42.302253" lon="3.138881">
        <ele>45.710469</ele>
        <time>2021-05-23T08:46:26.000Z</time>
      </trkpt>
      <trkpt lat="42.301442" lon="3.138601">
        <ele>43.275389</ele>
        <time>2021-05-23T08:46:35.000Z</time>
      </trkpt>
      <trkpt lat="42.301315" lon="3.138526">
        <ele>42.827433</ele>
        <time>2021-05-23T08:46:37.000Z</time>
      </trkpt>
      <trkpt lat="42.301179" lon="3.138367">
        <ele>42.254842</ele>
        <time>2021-05-23T08:46:39.000Z</time>
      </trkpt>
      <trkpt lat="42.30072" lon="3.1376">
        <ele>39.836001</ele>
        <time>2021-05-23T08:46:47.000Z</time>
      </trkpt>
      <trkpt lat="42.300598" lon="3.137364">
        <ele>39.169726</ele>
        <time>2021-05-23T08:46:49.000Z</time>
      </trkpt>
      <trkpt lat="42.299748" lon="3.135875">
        <ele>34.711522</ele>
        <time>2021-05-23T08:47:04.000Z</time>
      </trkpt>
      <trkpt lat="42.297183" lon="3.131402">
        <ele>23.392731</ele>
        <time>2021-05-23T08:47:51.000Z</time>
      </trkpt>
      <trkpt lat="42.296906" lon="3.130912">
        <ele>22.405069</ele>
        <time>2021-05-23T08:47:56.000Z</time>
      </trkpt>
      <trkpt lat="42.294931" lon="3.128156">
        <ele>16.728926</ele>
        <time>2021-05-23T08:48:28.000Z</time>
      </trkpt>
      <trkpt lat="42.294667" lon="3.127836">
        <ele>16.175744</ele>
        <time>2021-05-23T08:48:32.000Z</time>
      </trkpt>
      <trkpt lat="42.294437" lon="3.127647">
        <ele>15.885031</ele>
        <time>2021-05-23T08:48:35.000Z</time>
      </trkpt>
      <trkpt lat="42.293637" lon="3.127173">
        <ele>14.940598</ele>
        <time>2021-05-23T08:48:45.000Z</time>
      </trkpt>
      <trkpt lat="42.29162" lon="3.125987">
        <ele>12.93433</ele>
        <time>2021-05-23T08:49:09.000Z</time>
      </trkpt>
      <trkpt lat="42.29058" lon="3.125388">
        <ele>11.669257</ele>
        <time>2021-05-23T08:49:22.000Z</time>
      </trkpt>
      <trkpt lat="42.29038" lon="3.125251">
        <ele>11.402159</ele>
        <time>2021-05-23T08:49:24.000Z</time>
      </trkpt>
      <trkpt lat="42.290206" lon="3.12505">
        <ele>11.151243</ele>
        <time>2021-05-23T08:49:27.000Z</time>
      </trkpt>
      <trkpt lat="42.289618" lon="3.124209">
        <ele>9.938713</ele>
        <time>2021-05-23T08:49:37.000Z</time>
      </trkpt>
      <trkpt lat="42.289256" lon="3.12365">
        <ele>9.041717</ele>
        <time>2021-05-23T08:49:43.000Z</time>
      </trkpt>
      <trkpt lat="42.289055" lon="3.123404">
        <ele>8.628256</ele>
        <time>2021-05-23T08:49:46.000Z</time>
      </trkpt>
      <trkpt lat="42.288103" lon="3.122737">
        <ele>6.714571</ele>
        <time>2021-05-23T08:49:58.000Z</time>
      </trkpt>
      <trkpt lat="42.28777" lon="3.122477">
        <ele>5.966523</ele>
        <time>2021-05-23T08:50:02.000Z</time>
      </trkpt>
      <trkpt lat="42.287599" lon="3.122312">
        <ele>5.57769</ele>
        <time>2021-05-23T08:50:04.000Z</time>
      </trkpt>
      <trkpt lat="42.287432" lon="3.122126">
        <ele>5.162876</ele>
        <time>2021-05-23T08:50:06.000Z</time>
      </trkpt>
      <trkpt lat="42.287246" lon="3.121853">
        <ele>4.626923</ele>
        <time>2021-05-23T08:50:09.000Z</time>
      </trkpt>
      <trkpt lat="42.286281" lon="3.120536">
        <ele>2.713532</ele>
        <time>2021-05-23T08:50:24.000Z</time>
      </trkpt>
      <trkpt lat="42.285833" lon="3.119936">
        <ele>1.904477</ele>
        <time>2021-05-23T08:50:31.000Z</time>
      </trkpt>
      <trkpt lat="42.285582" lon="3.119656">
        <ele>1.63759</ele>
        <time>2021-05-23T08:50:35.000Z</time>
      </trkpt>
      <trkpt lat="42.285197" lon="3.119336">
        <ele>1.271896</ele>
        <time>2021-05-23T08:50:40.000Z</time>
      </trkpt>
      <trkpt lat="42.284301" lon="3.118586">
        <ele>0.458903</ele>
        <time>2021-05-23T08:50:52.000Z</time>
      </trkpt>
      <trkpt lat="42.283901" lon="3.118358">
        <ele>0.261205</ele>
        <time>2021-05-23T08:50:57.000Z</time>
      </trkpt>
      <trkpt lat="42.282255" lon="3.117698">
        <ele>-0.255003</ele>
        <time>2021-05-23T08:51:16.000Z</time>
      </trkpt>
      <trkpt lat="42.280889" lon="3.117149">
        <ele>-0.088302</ele>
        <time>2021-05-23T08:51:32.000Z</time>
      </trkpt>
      <trkpt lat="42.280683" lon="3.11706">
        <ele>-0.037617</ele>
        <time>2021-05-23T08:51:34.000Z</time>
      </trkpt>
      <trkpt lat="42.279559" lon="3.116622">
        <ele>0.257486</ele>
        <time>2021-05-23T08:51:47.000Z</time>
      </trkpt>
      <trkpt lat="42.279311" lon="3.116533">
        <ele>0.322137</ele>
        <time>2021-05-23T08:51:50.000Z</time>
      </trkpt>
      <trkpt lat="42.278158" lon="3.11609">
        <ele>0.515835</ele>
        <time>2021-05-23T08:52:03.000Z</time>
      </trkpt>
      <trkpt lat="42.277983" lon="3.116024">
        <ele>0.543868</ele>
        <time>2021-05-23T08:52:05.000Z</time>
      </trkpt>
      <trkpt lat="42.276858" lon="3.115597">
        <ele>0.859659</ele>
        <time>2021-05-23T08:52:18.000Z</time>
      </trkpt>
      <trkpt lat="42.276721" lon="3.115401">
        <ele>0.928627</ele>
        <time>2021-05-23T08:52:20.000Z</time>
      </trkpt>
      <trkpt lat="42.276121" lon="3.114232">
        <ele>1.276852</ele>
        <time>2021-05-23T08:52:32.000Z</time>
      </trkpt>
      <trkpt lat="42.275952" lon="3.113592">
        <ele>1.390936</ele>
        <time>2021-05-23T08:52:38.000Z</time>
      </trkpt>
      <trkpt lat="42.274952" lon="3.110912">
        <ele>1.740686</ele>
        <time>2021-05-23T08:53:03.000Z</time>
      </trkpt>
      <trkpt lat="42.274901" lon="3.110479">
        <ele>1.767008</ele>
        <time>2021-05-23T08:53:07.000Z</time>
      </trkpt>
      <trkpt lat="42.275017" lon="3.110054">
        <ele>1.793618</ele>
        <time>2021-05-23T08:53:11.000Z</time>
      </trkpt>
      <trkpt lat="42.275138" lon="3.109807">
        <ele>1.818077</ele>
        <time>2021-05-23T08:53:13.000Z</time>
      </trkpt>
      <trkpt lat="42.275451" lon="3.10955">
        <ele>1.862388</ele>
        <time>2021-05-23T08:53:17.000Z</time>
      </trkpt>
      <trkpt lat="42.276065" lon="3.109206">
        <ele>1.944118</ele>
        <time>2021-05-23T08:53:24.000Z</time>
      </trkpt>
      <trkpt lat="42.276185" lon="3.108903">
        <ele>1.976083</ele>
        <time>2021-05-23T08:53:27.000Z</time>
      </trkpt>
      <trkpt lat="42.276785" lon="3.106332">
        <ele>2.925052</ele>
        <time>2021-05-23T08:53:49.000Z</time>
      </trkpt>
      <trkpt lat="42.27721" lon="3.105324">
        <ele>3.336754</ele>
        <time>2021-05-23T08:53:59.000Z</time>
      </trkpt>
      <trkpt lat="42.277316" lon="3.10487">
        <ele>3.502205</ele>
        <time>2021-05-23T08:54:03.000Z</time>
      </trkpt>
      <trkpt lat="42.277404" lon="3.104239">
        <ele>3.729381</ele>
        <time>2021-05-23T08:54:08.000Z</time>
      </trkpt>
      <trkpt lat="42.277419" lon="3.104097">
        <ele>3.777671</ele>
        <time>2021-05-23T08:54:09.000Z</time>
      </trkpt>
      <trkpt lat="42.277645" lon="3.101886">
        <ele>3.523082</ele>
        <time>2021-05-23T08:54:27.000Z</time>
      </trkpt>
      <trkpt lat="42.277625" lon="3.101747">
        <ele>3.497843</ele>
        <time>2021-05-23T08:54:28.000Z</time>
      </trkpt>
      <trkpt lat="42.277604" lon="3.101655">
        <ele>3.483206</ele>
        <time>2021-05-23T08:54:29.000Z</time>
      </trkpt>
      <trkpt lat="42.273745" lon="3.093633">
        <ele>3.085633</ele>
        <time>2021-05-23T08:55:48.000Z</time>
      </trkpt>
      <trkpt lat="42.27202" lon="3.089629">
        <ele>2.896757</ele>
        <time>2021-05-23T08:56:26.000Z</time>
      </trkpt>
      <trkpt lat="42.271888" lon="3.089396">
        <ele>2.893052</ele>
        <time>2021-05-23T08:56:28.000Z</time>
      </trkpt>
      <trkpt lat="42.271696" lon="3.089284">
        <ele>2.893561</ele>
        <time>2021-05-23T08:56:30.000Z</time>
      </trkpt>
      <trkpt lat="42.271443" lon="3.089293">
        <ele>2.971009</ele>
        <time>2021-05-23T08:56:33.000Z</time>
      </trkpt>
      <trkpt lat="42.271038" lon="3.089456">
        <ele>3.103463</ele>
        <time>2021-05-23T08:56:38.000Z</time>
      </trkpt>
      <trkpt lat="42.270496" lon="3.08973">
        <ele>3.287833</ele>
        <time>2021-05-23T08:56:44.000Z</time>
      </trkpt>
      <trkpt lat="42.27026" lon="3.089783">
        <ele>3.362104</ele>
        <time>2021-05-23T08:56:47.000Z</time>
      </trkpt>
      <trkpt lat="42.268897" lon="3.088577">
        <ele>4.028628</ele>
        <time>2021-05-23T08:57:05.000Z</time>
      </trkpt>
      <trkpt lat="42.266989" lon="3.087704">
        <ele>4.574223</ele>
        <time>2021-05-23T08:57:27.000Z</time>
      </trkpt>
      <trkpt lat="42.266022" lon="3.087086">
        <ele>4.601644</ele>
        <time>2021-05-23T08:57:39.000Z</time>
      </trkpt>
      <trkpt lat="42.265492" lon="3.086674">
        <ele>4.579503</ele>
        <time>2021-05-23T08:57:46.000Z</time>
      </trkpt>
      <trkpt lat="42.264865" lon="3.085662">
        <ele>4.75555</ele>
        <time>2021-05-23T08:57:57.000Z</time>
      </trkpt>
      <trkpt lat="42.2639" lon="3.084416">
        <ele>5.172543</ele>
        <time>2021-05-23T08:58:12.000Z</time>
      </trkpt>
      <trkpt lat="42.263712" lon="3.084271">
        <ele>5.240311</ele>
        <time>2021-05-23T08:58:14.000Z</time>
      </trkpt>
      <trkpt lat="42.263401" lon="3.08419">
        <ele>5.343714</ele>
        <time>2021-05-23T08:58:18.000Z</time>
      </trkpt>
      <trkpt lat="42.26164" lon="3.084249">
        <ele>5.664347</ele>
        <time>2021-05-23T08:58:38.000Z</time>
      </trkpt>
      <trkpt lat="42.260219" lon="3.083798">
        <ele>5.524272</ele>
        <time>2021-05-23T08:58:54.000Z</time>
      </trkpt>
      <trkpt lat="42.259907" lon="3.083535">
        <ele>5.452113</ele>
        <time>2021-05-23T08:58:58.000Z</time>
      </trkpt>
      <trkpt lat="42.259621" lon="3.083093">
        <ele>5.368775</ele>
        <time>2021-05-23T08:59:03.000Z</time>
      </trkpt>
      <trkpt lat="42.259605" lon="3.08306">
        <ele>5.363466</ele>
        <time>2021-05-23T08:59:03.000Z</time>
      </trkpt>
      <trkpt lat="42.259446" lon="3.082925">
        <ele>5.326584</ele>
        <time>2021-05-23T08:59:05.000Z</time>
      </trkpt>
      <trkpt lat="42.259421" lon="3.082885">
        <ele>5.320274</ele>
        <time>2021-05-23T08:59:05.000Z</time>
      </trkpt>
      <trkpt lat="42.259212" lon="3.081601">
        <ele>5.354025</ele>
        <time>2021-05-23T08:59:16.000Z</time>
      </trkpt>
      <trkpt lat="42.259176" lon="3.08116">
        <ele>5.427999</ele>
        <time>2021-05-23T08:59:20.000Z</time>
      </trkpt>
      <trkpt lat="42.259163" lon="3.080816">
        <ele>5.488005</ele>
        <time>2021-05-23T08:59:23.000Z</time>
      </trkpt>
      <trkpt lat="42.259135" lon="3.080607">
        <ele>5.52197</ele>
        <time>2021-05-23T08:59:25.000Z</time>
      </trkpt>
      <trkpt lat="42.259132" lon="3.080595">
        <ele>5.526651</ele>
        <time>2021-05-23T08:59:25.000Z</time>
      </trkpt>
      <trkpt lat="42.258954" lon="3.079335">
        <ele>5.767633</ele>
        <time>2021-05-23T08:59:36.000Z</time>
      </trkpt>
      <trkpt lat="42.258942" lon="3.079325">
        <ele>5.770987</ele>
        <time>2021-05-23T08:59:36.000Z</time>
      </trkpt>
      <trkpt lat="42.258933" lon="3.079303">
        <ele>5.773661</ele>
        <time>2021-05-23T08:59:36.000Z</time>
      </trkpt>
      <trkpt lat="42.258681" lon="3.078329">
        <ele>5.991695</ele>
        <time>2021-05-23T08:59:44.000Z</time>
      </trkpt>
      <trkpt lat="42.258655" lon="3.078239">
        <ele>6.014869</ele>
        <time>2021-05-23T08:59:45.000Z</time>
      </trkpt>
      <trkpt lat="42.258576" lon="3.078072">
        <ele>6.056597</ele>
        <time>2021-05-23T08:59:47.000Z</time>
      </trkpt>
      <trkpt lat="42.258319" lon="3.078469">
        <ele>6.156598</ele>
        <time>2021-05-23T08:59:51.000Z</time>
      </trkpt>
      <trkpt lat="42.257976" lon="3.079054">
        <ele>6.132535</ele>
        <time>2021-05-23T08:59:57.000Z</time>
      </trkpt>
      <trkpt lat="42.257654" lon="3.079581">
        <ele>6.110839</ele>
        <time>2021-05-23T09:00:03.000Z</time>
      </trkpt>
      <trkpt lat="42.256977" lon="3.080687">
        <ele>6.046884</ele>
        <time>2021-05-23T09:00:15.000Z</time>
      </trkpt>
      <trkpt lat="42.257179" lon="3.081504">
        <ele>5.985869</ele>
        <time>2021-05-23T09:00:22.000Z</time>
      </trkpt>
      <trkpt lat="42.257222" lon="3.081684">
        <ele>5.971621</ele>
        <time>2021-05-23T09:00:24.000Z</time>
      </trkpt>
      <trkpt lat="42.257229" lon="3.0817">
        <ele>5.970502</ele>
        <time>2021-05-23T09:00:24.000Z</time>
      </trkpt>
      <trkpt lat="42.257718" lon="3.083577">
        <ele>5.79586</ele>
        <time>2021-05-23T09:00:40.000Z</time>
      </trkpt>
      <trkpt lat="42.257725" lon="3.083617">
        <ele>5.793401</ele>
        <time>2021-05-23T09:00:40.000Z</time>
      </trkpt>
      <trkpt lat="42.25789" lon="3.08423">
        <ele>5.72708</ele>
        <time>2021-05-23T09:00:45.000Z</time>
      </trkpt>
      <trkpt lat="42.258055" lon="3.084852">
        <ele>5.65605</ele>
        <time>2021-05-23T09:00:50.000Z</time>
      </trkpt>
      <trkpt lat="42.258067" lon="3.084992">
        <ele>5.614368</ele>
        <time>2021-05-23T09:00:51.000Z</time>
      </trkpt>
      <trkpt lat="42.258029" lon="3.085016">
        <ele>5.595826</ele>
        <time>2021-05-23T09:00:51.000Z</time>
      </trkpt>
      <trkpt lat="42.257965" lon="3.085113">
        <ele>5.559757</ele>
        <time>2021-05-23T09:00:52.000Z</time>
      </trkpt>
      <trkpt lat="42.257967" lon="3.085187">
        <ele>5.541313</ele>
        <time>2021-05-23T09:00:53.000Z</time>
      </trkpt>
      <trkpt lat="42.257975" lon="3.085248">
        <ele>5.524007</ele>
        <time>2021-05-23T09:00:54.000Z</time>
      </trkpt>
      <trkpt lat="42.258009" lon="3.085284">
        <ele>5.507104</ele>
        <time>2021-05-23T09:00:54.000Z</time>
      </trkpt>
      <trkpt lat="42.258039" lon="3.085331">
        <ele>5.490156</ele>
        <time>2021-05-23T09:00:55.000Z</time>
      </trkpt>
      <trkpt lat="42.258084" lon="3.085342">
        <ele>5.472866</ele>
        <time>2021-05-23T09:00:56.000Z</time>
      </trkpt>
      <trkpt lat="42.258121" lon="3.08534">
        <ele>5.456182</ele>
        <time>2021-05-23T09:00:56.000Z</time>
      </trkpt>
      <trkpt lat="42.25817" lon="3.085321">
        <ele>5.439073</ele>
        <time>2021-05-23T09:00:57.000Z</time>
      </trkpt>
      <trkpt lat="42.258993" lon="3.088529">
        <ele>4.447988</ele>
        <time>2021-05-23T09:01:25.000Z</time>
      </trkpt>
      <trkpt lat="42.259433" lon="3.090121">
        <ele>3.993857</ele>
        <time>2021-05-23T09:01:39.000Z</time>
      </trkpt>
      <trkpt lat="42.259883" lon="3.091225">
        <ele>3.686327</ele>
        <time>2021-05-23T09:01:49.000Z</time>
      </trkpt>
      <trkpt lat="42.260182" lon="3.09223">
        <ele>3.460131</ele>
        <time>2021-05-23T09:01:58.000Z</time>
      </trkpt>
      <trkpt lat="42.260309" lon="3.092542">
        <ele>3.388468</ele>
        <time>2021-05-23T09:02:01.000Z</time>
      </trkpt>
      <trkpt lat="42.260775" lon="3.093109">
        <ele>3.21979</ele>
        <time>2021-05-23T09:02:08.000Z</time>
      </trkpt>
      <trkpt lat="42.260868" lon="3.093292">
        <ele>3.17635</ele>
        <time>2021-05-23T09:02:10.000Z</time>
      </trkpt>
      <trkpt lat="42.260873" lon="3.093448">
        <ele>3.165856</ele>
        <time>2021-05-23T09:02:11.000Z</time>
      </trkpt>
      <trkpt lat="42.26086" lon="3.093551">
        <ele>3.182341</ele>
        <time>2021-05-23T09:02:12.000Z</time>
      </trkpt>
      <trkpt lat="42.260857" lon="3.093549">
        <ele>3.183174</ele>
        <time>2021-05-23T09:02:12.000Z</time>
      </trkpt>
      <trkpt lat="42.260871" lon="3.093549">
        <ele>3.183995</ele>
        <time>2021-05-23T09:02:12.000Z</time>
      </trkpt>
      <trkpt lat="42.260877" lon="3.093455">
        <ele>3.200479</ele>
        <time>2021-05-23T09:02:13.000Z</time>
      </trkpt>
      <trkpt lat="42.26086" lon="3.093286">
        <ele>3.228166</ele>
        <time>2021-05-23T09:02:14.000Z</time>
      </trkpt>
      <trkpt lat="42.260775" lon="3.093113">
        <ele>3.263875</ele>
        <time>2021-05-23T09:02:16.000Z</time>
      </trkpt>
      <trkpt lat="42.260311" lon="3.09254">
        <ele>3.402512</ele>
        <time>2021-05-23T09:02:23.000Z</time>
      </trkpt>
      <trkpt lat="42.260184" lon="3.092231">
        <ele>3.461419</ele>
        <time>2021-05-23T09:02:26.000Z</time>
      </trkpt>
      <trkpt lat="42.25988" lon="3.091232">
        <ele>3.681592</ele>
        <time>2021-05-23T09:02:35.000Z</time>
      </trkpt>
      <trkpt lat="42.259441" lon="3.090131">
        <ele>3.991396</ele>
        <time>2021-05-23T09:02:45.000Z</time>
      </trkpt>
      <trkpt lat="42.258989" lon="3.088537">
        <ele>4.435857</ele>
        <time>2021-05-23T09:02:59.000Z</time>
      </trkpt>
      <trkpt lat="42.258167" lon="3.085337">
        <ele>5.351384</ele>
        <time>2021-05-23T09:03:27.000Z</time>
      </trkpt>
      <trkpt lat="42.258197" lon="3.085296">
        <ele>5.36864</ele>
        <time>2021-05-23T09:03:27.000Z</time>
      </trkpt>
      <trkpt lat="42.258224" lon="3.085229">
        <ele>5.386268</ele>
        <time>2021-05-23T09:03:28.000Z</time>
      </trkpt>
      <trkpt lat="42.258237" lon="3.085177">
        <ele>5.403492</ele>
        <time>2021-05-23T09:03:28.000Z</time>
      </trkpt>
      <trkpt lat="42.258236" lon="3.085118">
        <ele>5.419284</ele>
        <time>2021-05-23T09:03:28.000Z</time>
      </trkpt>
      <trkpt lat="42.258103" lon="3.084983">
        <ele>5.472212</ele>
        <time>2021-05-23T09:03:30.000Z</time>
      </trkpt>
      <trkpt lat="42.258065" lon="3.084993">
        <ele>5.473024</ele>
        <time>2021-05-23T09:03:30.000Z</time>
      </trkpt>
      <trkpt lat="42.258033" lon="3.085012">
        <ele>5.473899</ele>
        <time>2021-05-23T09:03:30.000Z</time>
      </trkpt>
      <trkpt lat="42.257967" lon="3.085109">
        <ele>5.475632</ele>
        <time>2021-05-23T09:03:31.000Z</time>
      </trkpt>
      <trkpt lat="42.257975" lon="3.085173">
        <ele>5.476511</ele>
        <time>2021-05-23T09:03:32.000Z</time>
      </trkpt>
      <trkpt lat="42.257499" lon="3.085268">
        <ele>5.485168</ele>
        <time>2021-05-23T09:03:37.000Z</time>
      </trkpt>
      <trkpt lat="42.257066" lon="3.085369">
        <ele>5.493522</ele>
        <time>2021-05-23T09:03:42.000Z</time>
      </trkpt>
      <trkpt lat="42.25638" lon="3.085663">
        <ele>5.483141</ele>
        <time>2021-05-23T09:03:50.000Z</time>
      </trkpt>
      <trkpt lat="42.256149" lon="3.085813">
        <ele>5.421392</ele>
        <time>2021-05-23T09:03:53.000Z</time>
      </trkpt>
      <trkpt lat="42.25586" lon="3.086165">
        <ele>5.327357</ele>
        <time>2021-05-23T09:03:57.000Z</time>
      </trkpt>
      <trkpt lat="42.255471" lon="3.086977">
        <ele>5.150788</ele>
        <time>2021-05-23T09:04:05.000Z</time>
      </trkpt>
      <trkpt lat="42.255284" lon="3.087528">
        <ele>5.063385</ele>
        <time>2021-05-23T09:04:10.000Z</time>
      </trkpt>
      <trkpt lat="42.254368" lon="3.090219">
        <ele>5.029145</ele>
        <time>2021-05-23T09:04:34.000Z</time>
      </trkpt>
      <trkpt lat="42.254007" lon="3.091308">
        <ele>5.072224</ele>
        <time>2021-05-23T09:04:44.000Z</time>
      </trkpt>
      <trkpt lat="42.25336" lon="3.093057">
        <ele>4.92284</ele>
        <time>2021-05-23T09:05:00.000Z</time>
      </trkpt>
      <trkpt lat="42.25284" lon="3.09449">
        <ele>4.740823</ele>
        <time>2021-05-23T09:05:13.000Z</time>
      </trkpt>
      <trkpt lat="42.252831" lon="3.094497">
        <ele>4.739382</ele>
        <time>2021-05-23T09:05:13.000Z</time>
      </trkpt>
      <trkpt lat="42.252758" lon="3.094724">
        <ele>4.714348</ele>
        <time>2021-05-23T09:05:15.000Z</time>
      </trkpt>
      <trkpt lat="42.252506" lon="3.095416">
        <ele>4.640404</ele>
        <time>2021-05-23T09:05:21.000Z</time>
      </trkpt>
      <trkpt lat="42.252297" lon="3.096007">
        <ele>4.576152</ele>
        <time>2021-05-23T09:05:26.000Z</time>
      </trkpt>
      <trkpt lat="42.251974" lon="3.096892">
        <ele>4.734585</ele>
        <time>2021-05-23T09:05:34.000Z</time>
      </trkpt>
      <trkpt lat="42.251924" lon="3.097238">
        <ele>4.814192</ele>
        <time>2021-05-23T09:05:37.000Z</time>
      </trkpt>
      <trkpt lat="42.251903" lon="3.097719">
        <ele>4.922691</ele>
        <time>2021-05-23T09:05:41.000Z</time>
      </trkpt>
      <trkpt lat="42.25192" lon="3.097838">
        <ele>4.952148</ele>
        <time>2021-05-23T09:05:42.000Z</time>
      </trkpt>
      <trkpt lat="42.251921" lon="3.098261">
        <ele>5.046124</ele>
        <time>2021-05-23T09:05:45.000Z</time>
      </trkpt>
      <trkpt lat="42.251924" lon="3.098709">
        <ele>5.080552</ele>
        <time>2021-05-23T09:05:49.000Z</time>
      </trkpt>
      <trkpt lat="42.251931" lon="3.098694">
        <ele>5.08011</ele>
        <time>2021-05-23T09:05:49.000Z</time>
      </trkpt>
      <trkpt lat="42.25194" lon="3.099455">
        <ele>4.96869</ele>
        <time>2021-05-23T09:05:55.000Z</time>
      </trkpt>
      <trkpt lat="42.251954" lon="3.100128">
        <ele>4.86909</ele>
        <time>2021-05-23T09:06:01.000Z</time>
      </trkpt>
      <trkpt lat="42.251969" lon="3.10081">
        <ele>4.766061</ele>
        <time>2021-05-23T09:06:07.000Z</time>
      </trkpt>
      <trkpt lat="42.251982" lon="3.101291">
        <ele>4.613729</ele>
        <time>2021-05-23T09:06:11.000Z</time>
      </trkpt>
      <trkpt lat="42.252001" lon="3.101769">
        <ele>4.426948</ele>
        <time>2021-05-23T09:06:15.000Z</time>
      </trkpt>
      <trkpt lat="42.252027" lon="3.102758">
        <ele>4.044432</ele>
        <time>2021-05-23T09:06:23.000Z</time>
      </trkpt>
      <trkpt lat="42.252047" lon="3.103188">
        <ele>3.877378</ele>
        <time>2021-05-23T09:06:27.000Z</time>
      </trkpt>
      <trkpt lat="42.252065" lon="3.103638">
        <ele>3.817498</ele>
        <time>2021-05-23T09:06:31.000Z</time>
      </trkpt>
      <trkpt lat="42.251995" lon="3.103842">
        <ele>3.829431</ele>
        <time>2021-05-23T09:06:33.000Z</time>
      </trkpt>
      <trkpt lat="42.251921" lon="3.103959">
        <ele>3.837122</ele>
        <time>2021-05-23T09:06:34.000Z</time>
      </trkpt>
      <trkpt lat="42.251789" lon="3.10407">
        <ele>3.847797</ele>
        <time>2021-05-23T09:06:36.000Z</time>
      </trkpt>
      <trkpt lat="42.25075" lon="3.104493">
        <ele>3.922354</ele>
        <time>2021-05-23T09:06:48.000Z</time>
      </trkpt>
      <trkpt lat="42.250308" lon="3.104775">
        <ele>4.063888</ele>
        <time>2021-05-23T09:06:53.000Z</time>
      </trkpt>
      <trkpt lat="42.250151" lon="3.104788">
        <ele>4.12061</ele>
        <time>2021-05-23T09:06:55.000Z</time>
      </trkpt>
      <trkpt lat="42.250028" lon="3.104725">
        <ele>4.165681</ele>
        <time>2021-05-23T09:06:56.000Z</time>
      </trkpt>
      <trkpt lat="42.249974" lon="3.104683">
        <ele>4.187614</ele>
        <time>2021-05-23T09:06:57.000Z</time>
      </trkpt>
      <trkpt lat="42.249932" lon="3.10464">
        <ele>4.204139</ele>
        <time>2021-05-23T09:06:58.000Z</time>
      </trkpt>
      <trkpt lat="42.249816" lon="3.104519">
        <ele>4.254404</ele>
        <time>2021-05-23T09:07:00.000Z</time>
      </trkpt>
      <trkpt lat="42.249424" lon="3.104242">
        <ele>4.405771</ele>
        <time>2021-05-23T09:07:05.000Z</time>
      </trkpt>
      <trkpt lat="42.249417" lon="3.104236">
        <ele>4.407573</ele>
        <time>2021-05-23T09:07:05.000Z</time>
      </trkpt>
      <trkpt lat="42.249354" lon="3.104224">
        <ele>4.429868</ele>
        <time>2021-05-23T09:07:06.000Z</time>
      </trkpt>
      <trkpt lat="42.249063" lon="3.104098">
        <ele>4.531524</ele>
        <time>2021-05-23T09:07:09.000Z</time>
      </trkpt>
      <trkpt lat="42.248727" lon="3.104006">
        <ele>4.60385</ele>
        <time>2021-05-23T09:07:13.000Z</time>
      </trkpt>
      <trkpt lat="42.248733" lon="3.104023">
        <ele>4.604417</ele>
        <time>2021-05-23T09:07:13.000Z</time>
      </trkpt>
      <trkpt lat="42.248675" lon="3.104022">
        <ele>4.615021</ele>
        <time>2021-05-23T09:07:14.000Z</time>
      </trkpt>
      <trkpt lat="42.248168" lon="3.104026">
        <ele>4.71113</ele>
        <time>2021-05-23T09:07:20.000Z</time>
      </trkpt>
      <trkpt lat="42.248134" lon="3.10402">
        <ele>4.715286</ele>
        <time>2021-05-23T09:07:20.000Z</time>
      </trkpt>
      <trkpt lat="42.248102" lon="3.104036">
        <ele>4.723851</ele>
        <time>2021-05-23T09:07:20.000Z</time>
      </trkpt>
      <trkpt lat="42.247461" lon="3.104314">
        <ele>4.850001</ele>
        <time>2021-05-23T09:07:27.000Z</time>
      </trkpt>
      <trkpt lat="42.247435" lon="3.10434">
        <ele>4.855764</ele>
        <time>2021-05-23T09:07:27.000Z</time>
      </trkpt>
      <trkpt lat="42.247394" lon="3.104365">
        <ele>4.863934</ele>
        <time>2021-05-23T09:07:28.000Z</time>
      </trkpt>
      <trkpt lat="42.247011" lon="3.104705">
        <ele>4.890634</ele>
        <time>2021-05-23T09:07:33.000Z</time>
      </trkpt>
      <trkpt lat="42.246966" lon="3.104746">
        <ele>4.891159</ele>
        <time>2021-05-23T09:07:34.000Z</time>
      </trkpt>
      <trkpt lat="42.246931" lon="3.104787">
        <ele>4.891757</ele>
        <time>2021-05-23T09:07:35.000Z</time>
      </trkpt>
      <trkpt lat="42.246886" lon="3.104835">
        <ele>4.892483</ele>
        <time>2021-05-23T09:07:36.000Z</time>
      </trkpt>
      <trkpt lat="42.246793" lon="3.104927">
        <ele>4.89381</ele>
        <time>2021-05-23T09:07:37.000Z</time>
      </trkpt>
      <trkpt lat="42.246804" lon="3.104932">
        <ele>4.893827</ele>
        <time>2021-05-23T09:07:37.000Z</time>
      </trkpt>
      <trkpt lat="42.246767" lon="3.104964">
        <ele>4.89425</ele>
        <time>2021-05-23T09:07:37.000Z</time>
      </trkpt>
      <trkpt lat="42.246499" lon="3.105418">
        <ele>4.899372</ele>
        <time>2021-05-23T09:07:42.000Z</time>
      </trkpt>
      <trkpt lat="42.246408" lon="3.105552">
        <ele>4.90101</ele>
        <time>2021-05-23T09:07:43.000Z</time>
      </trkpt>
      <trkpt lat="42.246331" lon="3.105682">
        <ele>4.902448</ele>
        <time>2021-05-23T09:07:44.000Z</time>
      </trkpt>
      <trkpt lat="42.245477" lon="3.10676">
        <ele>4.611683</ele>
        <time>2021-05-23T09:07:57.000Z</time>
      </trkpt>
      <trkpt lat="42.244767" lon="3.107501">
        <ele>4.242634</ele>
        <time>2021-05-23T09:08:07.000Z</time>
      </trkpt>
      <trkpt lat="42.244539" lon="3.107777">
        <ele>4.110947</ele>
        <time>2021-05-23T09:08:10.000Z</time>
      </trkpt>
      <trkpt lat="42.244245" lon="3.108339">
        <ele>3.88905</ele>
        <time>2021-05-23T09:08:16.000Z</time>
      </trkpt>
      <trkpt lat="42.243985" lon="3.109001">
        <ele>3.646708</ele>
        <time>2021-05-23T09:08:22.000Z</time>
      </trkpt>
      <trkpt lat="42.243186" lon="3.110962">
        <ele>3.004137</ele>
        <time>2021-05-23T09:08:40.000Z</time>
      </trkpt>
      <trkpt lat="42.242746" lon="3.111951">
        <ele>2.717621</ele>
        <time>2021-05-23T09:08:49.000Z</time>
      </trkpt>
      <trkpt lat="42.242347" lon="3.11297">
        <ele>2.577922</ele>
        <time>2021-05-23T09:08:58.000Z</time>
      </trkpt>
      <trkpt lat="42.241301" lon="3.115445">
        <ele>2.318873</ele>
        <time>2021-05-23T09:09:21.000Z</time>
      </trkpt>
      <trkpt lat="42.240201" lon="3.118089">
        <ele>1.656854</ele>
        <time>2021-05-23T09:09:46.000Z</time>
      </trkpt>
      <trkpt lat="42.239662" lon="3.119362">
        <ele>1.784058</ele>
        <time>2021-05-23T09:09:58.000Z</time>
      </trkpt>
      <trkpt lat="42.239304" lon="3.120258">
        <ele>1.909874</ele>
        <time>2021-05-23T09:10:06.000Z</time>
      </trkpt>
      <trkpt lat="42.238902" lon="3.121194">
        <ele>2.43629</ele>
        <time>2021-05-23T09:10:15.000Z</time>
      </trkpt>
      <trkpt lat="42.238816" lon="3.121399">
        <ele>2.555503</ele>
        <time>2021-05-23T09:10:17.000Z</time>
      </trkpt>
      <trkpt lat="42.238704" lon="3.121657">
        <ele>2.701668</ele>
        <time>2021-05-23T09:10:19.000Z</time>
      </trkpt>
      <trkpt lat="42.238626" lon="3.121839">
        <ele>2.812834</ele>
        <time>2021-05-23T09:10:21.000Z</time>
      </trkpt>
      <trkpt lat="42.237946" lon="3.123447">
        <ele>3.222682</ele>
        <time>2021-05-23T09:10:36.000Z</time>
      </trkpt>
      <trkpt lat="42.23795" lon="3.123445">
        <ele>3.22269</ele>
        <time>2021-05-23T09:10:36.000Z</time>
      </trkpt>
      <trkpt lat="42.23773" lon="3.124016">
        <ele>3.258165</ele>
        <time>2021-05-23T09:10:41.000Z</time>
      </trkpt>
      <trkpt lat="42.237726" lon="3.124171">
        <ele>3.266442</ele>
        <time>2021-05-23T09:10:42.000Z</time>
      </trkpt>
      <trkpt lat="42.237769" lon="3.124456">
        <ele>3.282117</ele>
        <time>2021-05-23T09:10:44.000Z</time>
      </trkpt>
      <trkpt lat="42.23803" lon="3.124765">
        <ele>3.226614</ele>
        <time>2021-05-23T09:10:48.000Z</time>
      </trkpt>
      <trkpt lat="42.239185" lon="3.125628">
        <ele>2.85338</ele>
        <time>2021-05-23T09:11:03.000Z</time>
      </trkpt>
      <trkpt lat="42.2393" lon="3.125725">
        <ele>2.819205</ele>
        <time>2021-05-23T09:11:05.000Z</time>
      </trkpt>
      <trkpt lat="42.23973" lon="3.126043">
        <ele>2.712041</ele>
        <time>2021-05-23T09:11:10.000Z</time>
      </trkpt>
      <trkpt lat="42.239869" lon="3.126157">
        <ele>2.682492</ele>
        <time>2021-05-23T09:11:12.000Z</time>
      </trkpt>
      <trkpt lat="42.241491" lon="3.127446">
        <ele>2.483694</ele>
        <time>2021-05-23T09:11:33.000Z</time>
      </trkpt>
      <trkpt lat="42.241586" lon="3.127542">
        <ele>2.493237</ele>
        <time>2021-05-23T09:11:34.000Z</time>
      </trkpt>
      <trkpt lat="42.241647" lon="3.127583">
        <ele>2.498912</ele>
        <time>2021-05-23T09:11:35.000Z</time>
      </trkpt>
      <trkpt lat="42.241744" lon="3.127681">
        <ele>2.507631</ele>
        <time>2021-05-23T09:11:36.000Z</time>
      </trkpt>
      <trkpt lat="42.243328" lon="3.129095">
        <ele>2.956922</ele>
        <time>2021-05-23T09:11:57.000Z</time>
      </trkpt>
      <trkpt lat="42.243449" lon="3.129181">
        <ele>3.006731</ele>
        <time>2021-05-23T09:11:59.000Z</time>
      </trkpt>
      <trkpt lat="42.243452" lon="3.129181">
        <ele>3.006732</ele>
        <time>2021-05-23T09:11:59.000Z</time>
      </trkpt>
      <trkpt lat="42.243868" lon="3.129586">
        <ele>3.19841</ele>
        <time>2021-05-23T09:12:05.000Z</time>
      </trkpt>
      <trkpt lat="42.243964" lon="3.129665">
        <ele>3.242082</ele>
        <time>2021-05-23T09:12:06.000Z</time>
      </trkpt>
      <trkpt lat="42.244754" lon="3.13043">
        <ele>3.490237</ele>
        <time>2021-05-23T09:12:17.000Z</time>
      </trkpt>
      <trkpt lat="42.24562" lon="3.131274">
        <ele>3.713269</ele>
        <time>2021-05-23T09:12:29.000Z</time>
      </trkpt>
      <trkpt lat="42.245688" lon="3.131349">
        <ele>3.716549</ele>
        <time>2021-05-23T09:12:30.000Z</time>
      </trkpt>
      <trkpt lat="42.247179" lon="3.13297">
        <ele>3.763067</ele>
        <time>2021-05-23T09:12:51.000Z</time>
      </trkpt>
      <trkpt lat="42.247363" lon="3.133199">
        <ele>3.756582</ele>
        <time>2021-05-23T09:12:54.000Z</time>
      </trkpt>
      <trkpt lat="42.247471" lon="3.133031">
        <ele>3.752661</ele>
        <time>2021-05-23T09:12:56.000Z</time>
      </trkpt>
      <trkpt lat="42.247487" lon="3.133019">
        <ele>3.752078</ele>
        <time>2021-05-23T09:12:56.000Z</time>
      </trkpt>
      <trkpt lat="42.247493" lon="3.133015">
        <ele>3.752063</ele>
        <time>2021-05-23T09:12:56.000Z</time>
      </trkpt>
      <trkpt lat="42.247293" lon="3.132793">
        <ele>3.745561</ele>
        <time>2021-05-23T09:12:59.000Z</time>
      </trkpt>
      <trkpt lat="42.245787" lon="3.131162">
        <ele>3.663714</ele>
        <time>2021-05-23T09:13:20.000Z</time>
      </trkpt>
      <trkpt lat="42.245758" lon="3.13112">
        <ele>3.662028</ele>
        <time>2021-05-23T09:13:20.000Z</time>
      </trkpt>
      <trkpt lat="42.245708" lon="3.131085">
        <ele>3.659033</ele>
        <time>2021-05-23T09:13:21.000Z</time>
      </trkpt>
      <trkpt lat="42.244848" lon="3.130239">
        <ele>3.517367</ele>
        <time>2021-05-23T09:13:33.000Z</time>
      </trkpt>
      <trkpt lat="42.244713" lon="3.130105">
        <ele>3.486521</ele>
        <time>2021-05-23T09:13:35.000Z</time>
      </trkpt>
      <trkpt lat="42.244075" lon="3.129481">
        <ele>3.330381</ele>
        <time>2021-05-23T09:13:44.000Z</time>
      </trkpt>
      <trkpt lat="42.243978" lon="3.129386">
        <ele>3.30668</ele>
        <time>2021-05-23T09:13:45.000Z</time>
      </trkpt>
      <trkpt lat="42.243917" lon="3.129316">
        <ele>3.292647</ele>
        <time>2021-05-23T09:13:46.000Z</time>
      </trkpt>
      <trkpt lat="42.243782" lon="3.129167">
        <ele>3.248571</ele>
        <time>2021-05-23T09:13:48.000Z</time>
      </trkpt>
      <trkpt lat="42.243612" lon="3.129026">
        <ele>3.193063</ele>
        <time>2021-05-23T09:13:50.000Z</time>
      </trkpt>
      <trkpt lat="42.243538" lon="3.128964">
        <ele>3.170767</ele>
        <time>2021-05-23T09:13:51.000Z</time>
      </trkpt>
      <trkpt lat="42.243459" lon="3.128865">
        <ele>3.139322</ele>
        <time>2021-05-23T09:13:52.000Z</time>
      </trkpt>
      <trkpt lat="42.243299" lon="3.128735">
        <ele>3.089833</ele>
        <time>2021-05-23T09:13:54.000Z</time>
      </trkpt>
      <trkpt lat="42.24291" lon="3.128393">
        <ele>2.962671</ele>
        <time>2021-05-23T09:13:59.000Z</time>
      </trkpt>
      <trkpt lat="42.242683" lon="3.128181">
        <ele>2.885139</ele>
        <time>2021-05-23T09:14:02.000Z</time>
      </trkpt>
      <trkpt lat="42.24259" lon="3.128112">
        <ele>2.860143</ele>
        <time>2021-05-23T09:14:03.000Z</time>
      </trkpt>
      <trkpt lat="42.24184" lon="3.127459">
        <ele>2.889279</ele>
        <time>2021-05-23T09:14:13.000Z</time>
      </trkpt>
      <trkpt lat="42.241757" lon="3.127392">
        <ele>2.904106</ele>
        <time>2021-05-23T09:14:14.000Z</time>
      </trkpt>
      <trkpt lat="42.241717" lon="3.127344">
        <ele>2.91054</ele>
        <time>2021-05-23T09:14:15.000Z</time>
      </trkpt>
      <trkpt lat="42.241682" lon="3.127318">
        <ele>2.917293</ele>
        <time>2021-05-23T09:14:15.000Z</time>
      </trkpt>
      <trkpt lat="42.241585" lon="3.127242">
        <ele>2.933582</ele>
        <time>2021-05-23T09:14:16.000Z</time>
      </trkpt>
      <trkpt lat="42.239956" lon="3.125925">
        <ele>3.358809</ele>
        <time>2021-05-23T09:14:37.000Z</time>
      </trkpt>
      <trkpt lat="42.239822" lon="3.125824">
        <ele>3.404029</ele>
        <time>2021-05-23T09:14:39.000Z</time>
      </trkpt>
      <trkpt lat="42.239618" lon="3.125637">
        <ele>3.473154</ele>
        <time>2021-05-23T09:14:42.000Z</time>
      </trkpt>
      <trkpt lat="42.239417" lon="3.125486">
        <ele>3.542035</ele>
        <time>2021-05-23T09:14:45.000Z</time>
      </trkpt>
      <trkpt lat="42.239301" lon="3.125395">
        <ele>3.574118</ele>
        <time>2021-05-23T09:14:46.000Z</time>
      </trkpt>
      <trkpt lat="42.239184" lon="3.125302">
        <ele>3.579392</ele>
        <time>2021-05-23T09:14:48.000Z</time>
      </trkpt>
      <trkpt lat="42.238047" lon="3.124471">
        <ele>3.628698</ele>
        <time>2021-05-23T09:15:02.000Z</time>
      </trkpt>
      <trkpt lat="42.237965" lon="3.124415">
        <ele>3.632081</ele>
        <time>2021-05-23T09:15:03.000Z</time>
      </trkpt>
      <trkpt lat="42.237864" lon="3.124329">
        <ele>3.636905</ele>
        <time>2021-05-23T09:15:04.000Z</time>
      </trkpt>
      <trkpt lat="42.237756" lon="3.124145">
        <ele>3.630287</ele>
        <time>2021-05-23T09:15:06.000Z</time>
      </trkpt>
      <trkpt lat="42.23774" lon="3.12402">
        <ele>3.596642</ele>
        <time>2021-05-23T09:15:07.000Z</time>
      </trkpt>
      <trkpt lat="42.237957" lon="3.123448">
        <ele>3.434769</ele>
        <time>2021-05-23T09:15:12.000Z</time>
      </trkpt>
      <trkpt lat="42.237945" lon="3.123451">
        <ele>3.434773</ele>
        <time>2021-05-23T09:15:12.000Z</time>
      </trkpt>
      <trkpt lat="42.238622" lon="3.121839">
        <ele>2.903078</ele>
        <time>2021-05-23T09:15:27.000Z</time>
      </trkpt>
      <trkpt lat="42.238703" lon="3.12164">
        <ele>2.786183</ele>
        <time>2021-05-23T09:15:29.000Z</time>
      </trkpt>
      <trkpt lat="42.238805" lon="3.121405">
        <ele>2.632469</ele>
        <time>2021-05-23T09:15:31.000Z</time>
      </trkpt>
      <trkpt lat="42.238898" lon="3.121201">
        <ele>2.507098</ele>
        <time>2021-05-23T09:15:33.000Z</time>
      </trkpt>
      <trkpt lat="42.239308" lon="3.120253">
        <ele>1.922039</ele>
        <time>2021-05-23T09:15:42.000Z</time>
      </trkpt>
      <trkpt lat="42.239676" lon="3.11936">
        <ele>1.727327</ele>
        <time>2021-05-23T09:15:50.000Z</time>
      </trkpt>
      <trkpt lat="42.240203" lon="3.118083">
        <ele>1.717797</ele>
        <time>2021-05-23T09:16:02.000Z</time>
      </trkpt>
      <trkpt lat="42.241295" lon="3.115452">
        <ele>2.364616</ele>
        <time>2021-05-23T09:16:27.000Z</time>
      </trkpt>
      <trkpt lat="42.242345" lon="3.112969">
        <ele>2.559104</ele>
        <time>2021-05-23T09:16:51.000Z</time>
      </trkpt>
      <trkpt lat="42.242763" lon="3.111949">
        <ele>2.753251</ele>
        <time>2021-05-23T09:17:01.000Z</time>
      </trkpt>
      <trkpt lat="42.243183" lon="3.110969">
        <ele>3.003274</ele>
        <time>2021-05-23T09:17:10.000Z</time>
      </trkpt>
      <trkpt lat="42.243992" lon="3.108995">
        <ele>3.630907</ele>
        <time>2021-05-23T09:17:29.000Z</time>
      </trkpt>
      <trkpt lat="42.244251" lon="3.108344">
        <ele>3.888272</ele>
        <time>2021-05-23T09:17:35.000Z</time>
      </trkpt>
      <trkpt lat="42.24453" lon="3.107767">
        <ele>4.123943</ele>
        <time>2021-05-23T09:17:41.000Z</time>
      </trkpt>
      <trkpt lat="42.244773" lon="3.107512">
        <ele>4.268252</ele>
        <time>2021-05-23T09:17:44.000Z</time>
      </trkpt>
      <trkpt lat="42.245469" lon="3.106772">
        <ele>4.576415</ele>
        <time>2021-05-23T09:17:54.000Z</time>
      </trkpt>
      <trkpt lat="42.246335" lon="3.105675">
        <ele>4.90893</ele>
        <time>2021-05-23T09:18:07.000Z</time>
      </trkpt>
      <trkpt lat="42.246395" lon="3.105557">
        <ele>4.903138</ele>
        <time>2021-05-23T09:18:08.000Z</time>
      </trkpt>
      <trkpt lat="42.246494" lon="3.10541">
        <ele>4.896466</ele>
        <time>2021-05-23T09:18:10.000Z</time>
      </trkpt>
      <trkpt lat="42.246777" lon="3.104963">
        <ele>4.875725</ele>
        <time>2021-05-23T09:18:15.000Z</time>
      </trkpt>
      <trkpt lat="42.246776" lon="3.104971">
        <ele>4.875723</ele>
        <time>2021-05-23T09:18:15.000Z</time>
      </trkpt>
      <trkpt lat="42.246878" lon="3.104837">
        <ele>4.868639</ele>
        <time>2021-05-23T09:18:17.000Z</time>
      </trkpt>
      <trkpt lat="42.246889" lon="3.104827">
        <ele>4.868632</ele>
        <time>2021-05-23T09:18:17.000Z</time>
      </trkpt>
      <trkpt lat="42.246877" lon="3.104831">
        <ele>4.868636</ele>
        <time>2021-05-23T09:18:17.000Z</time>
      </trkpt>
      <trkpt lat="42.247391" lon="3.104374">
        <ele>4.839021</ele>
        <time>2021-05-23T09:18:24.000Z</time>
      </trkpt>
      <trkpt lat="42.2474" lon="3.10436">
        <ele>4.839019</ele>
        <time>2021-05-23T09:18:24.000Z</time>
      </trkpt>
      <trkpt lat="42.247397" lon="3.10436">
        <ele>4.839024</ele>
        <time>2021-05-23T09:18:24.000Z</time>
      </trkpt>
      <trkpt lat="42.248102" lon="3.104032">
        <ele>4.72234</ele>
        <time>2021-05-23T09:18:32.000Z</time>
      </trkpt>
      <trkpt lat="42.248101" lon="3.104041">
        <ele>4.722348</ele>
        <time>2021-05-23T09:18:32.000Z</time>
      </trkpt>
      <trkpt lat="42.24866" lon="3.104009">
        <ele>4.60821</ele>
        <time>2021-05-23T09:18:38.000Z</time>
      </trkpt>
      <trkpt lat="42.248675" lon="3.104021">
        <ele>4.608207</ele>
        <time>2021-05-23T09:18:38.000Z</time>
      </trkpt>
      <trkpt lat="42.248669" lon="3.104024">
        <ele>4.60822</ele>
        <time>2021-05-23T09:18:38.000Z</time>
      </trkpt>
      <trkpt lat="42.249352" lon="3.10422">
        <ele>4.467336</ele>
        <time>2021-05-23T09:18:46.000Z</time>
      </trkpt>
      <trkpt lat="42.249344" lon="3.104221">
        <ele>4.467343</ele>
        <time>2021-05-23T09:18:46.000Z</time>
      </trkpt>
      <trkpt lat="42.249936" lon="3.104644">
        <ele>4.240673</ele>
        <time>2021-05-23T09:18:53.000Z</time>
      </trkpt>
      <trkpt lat="42.249932" lon="3.104636">
        <ele>4.240675</ele>
        <time>2021-05-23T09:18:53.000Z</time>
      </trkpt>
      <trkpt lat="42.249925" lon="3.104645">
        <ele>4.240676</ele>
        <time>2021-05-23T09:18:53.000Z</time>
      </trkpt>
      <trkpt lat="42.250265" lon="3.104802">
        <ele>4.115344</ele>
        <time>2021-05-23T09:18:57.000Z</time>
      </trkpt>
      <trkpt lat="42.250282" lon="3.104793">
        <ele>4.112703</ele>
        <time>2021-05-23T09:18:57.000Z</time>
      </trkpt>
      <trkpt lat="42.250314" lon="3.104772">
        <ele>4.100387</ele>
        <time>2021-05-23T09:18:57.000Z</time>
      </trkpt>
      <trkpt lat="42.25074" lon="3.104494">
        <ele>3.933441</ele>
        <time>2021-05-23T09:19:02.000Z</time>
      </trkpt>
      <trkpt lat="42.251782" lon="3.104075">
        <ele>3.871201</ele>
        <time>2021-05-23T09:19:14.000Z</time>
      </trkpt>
      <trkpt lat="42.251913" lon="3.103954">
        <ele>3.875428</ele>
        <time>2021-05-23T09:19:16.000Z</time>
      </trkpt>
      <trkpt lat="42.251986" lon="3.103838">
        <ele>3.878458</ele>
        <time>2021-05-23T09:19:17.000Z</time>
      </trkpt>
      <trkpt lat="42.252071" lon="3.103626">
        <ele>3.883165</ele>
        <time>2021-05-23T09:19:19.000Z</time>
      </trkpt>
      <trkpt lat="42.252038" lon="3.103184">
        <ele>3.89194</ele>
        <time>2021-05-23T09:19:23.000Z</time>
      </trkpt>
      <trkpt lat="42.252032" lon="3.102759">
        <ele>3.966311</ele>
        <time>2021-05-23T09:19:26.000Z</time>
      </trkpt>
      <trkpt lat="42.251992" lon="3.101776">
        <ele>4.370859</ele>
        <time>2021-05-23T09:19:34.000Z</time>
      </trkpt>
      <trkpt lat="42.251988" lon="3.10129">
        <ele>4.568428</ele>
        <time>2021-05-23T09:19:38.000Z</time>
      </trkpt>
      <trkpt lat="42.251973" lon="3.100809">
        <ele>4.763954</ele>
        <time>2021-05-23T09:19:42.000Z</time>
      </trkpt>
      <trkpt lat="42.251957" lon="3.10012">
        <ele>4.916324</ele>
        <time>2021-05-23T09:19:48.000Z</time>
      </trkpt>
      <trkpt lat="42.251939" lon="3.099458">
        <ele>4.958505</ele>
        <time>2021-05-23T09:19:53.000Z</time>
      </trkpt>
      <trkpt lat="42.251931" lon="3.098696">
        <ele>5.005704</ele>
        <time>2021-05-23T09:19:59.000Z</time>
      </trkpt>
      <trkpt lat="42.251925" lon="3.098702">
        <ele>5.005881</ele>
        <time>2021-05-23T09:19:59.000Z</time>
      </trkpt>
      <trkpt lat="42.251908" lon="3.098257">
        <ele>5.033826</ele>
        <time>2021-05-23T09:20:03.000Z</time>
      </trkpt>
      <trkpt lat="42.251909" lon="3.097848">
        <ele>4.9925</ele>
        <time>2021-05-23T09:20:06.000Z</time>
      </trkpt>
      <trkpt lat="42.251903" lon="3.097711">
        <ele>4.962999</ele>
        <time>2021-05-23T09:20:07.000Z</time>
      </trkpt>
      <trkpt lat="42.251924" lon="3.097234">
        <ele>4.854252</ele>
        <time>2021-05-23T09:20:11.000Z</time>
      </trkpt>
      <trkpt lat="42.251973" lon="3.096884">
        <ele>4.774497</ele>
        <time>2021-05-23T09:20:14.000Z</time>
      </trkpt>
      <trkpt lat="42.252292" lon="3.096008">
        <ele>4.550349</ele>
        <time>2021-05-23T09:20:22.000Z</time>
      </trkpt>
      <trkpt lat="42.252513" lon="3.095415">
        <ele>4.565123</ele>
        <time>2021-05-23T09:20:27.000Z</time>
      </trkpt>
      <trkpt lat="42.252753" lon="3.094735">
        <ele>4.697257</ele>
        <time>2021-05-23T09:20:33.000Z</time>
      </trkpt>
      <trkpt lat="42.253368" lon="3.093061">
        <ele>4.958285</ele>
        <time>2021-05-23T09:20:48.000Z</time>
      </trkpt>
      <trkpt lat="42.254012" lon="3.091301">
        <ele>5.075452</ele>
        <time>2021-05-23T09:21:04.000Z</time>
      </trkpt>
      <trkpt lat="42.254385" lon="3.090216">
        <ele>5.036463</ele>
        <time>2021-05-23T09:21:14.000Z</time>
      </trkpt>
      <trkpt lat="42.25529" lon="3.087529">
        <ele>5.092907</ele>
        <time>2021-05-23T09:21:38.000Z</time>
      </trkpt>
      <trkpt lat="42.255458" lon="3.086985">
        <ele>5.124778</ele>
        <time>2021-05-23T09:21:43.000Z</time>
      </trkpt>
      <trkpt lat="42.255862" lon="3.08617">
        <ele>5.298246</ele>
        <time>2021-05-23T09:21:51.000Z</time>
      </trkpt>
      <trkpt lat="42.256148" lon="3.08581">
        <ele>5.390648</ele>
        <time>2021-05-23T09:21:55.000Z</time>
      </trkpt>
      <trkpt lat="42.256375" lon="3.085666">
        <ele>5.451307</ele>
        <time>2021-05-23T09:21:58.000Z</time>
      </trkpt>
      <trkpt lat="42.257063" lon="3.085365">
        <ele>5.593233</ele>
        <time>2021-05-23T09:22:06.000Z</time>
      </trkpt>
      <trkpt lat="42.257514" lon="3.08527">
        <ele>5.65452</ele>
        <time>2021-05-23T09:22:11.000Z</time>
      </trkpt>
      <trkpt lat="42.257979" lon="3.085182">
        <ele>5.717999</ele>
        <time>2021-05-23T09:22:16.000Z</time>
      </trkpt>
      <trkpt lat="42.257975" lon="3.085234">
        <ele>5.724061</ele>
        <time>2021-05-23T09:22:16.000Z</time>
      </trkpt>
      <trkpt lat="42.258014" lon="3.085282">
        <ele>5.729976</ele>
        <time>2021-05-23T09:22:17.000Z</time>
      </trkpt>
      <trkpt lat="42.258035" lon="3.08533">
        <ele>5.7359</ele>
        <time>2021-05-23T09:22:17.000Z</time>
      </trkpt>
      <trkpt lat="42.25808" lon="3.085353">
        <ele>5.741947</ele>
        <time>2021-05-23T09:22:18.000Z</time>
      </trkpt>
      <trkpt lat="42.258117" lon="3.085356">
        <ele>5.747802</ele>
        <time>2021-05-23T09:22:18.000Z</time>
      </trkpt>
      <trkpt lat="42.258164" lon="3.085332">
        <ele>5.753783</ele>
        <time>2021-05-23T09:22:19.000Z</time>
      </trkpt>
      <trkpt lat="42.25821" lon="3.085285">
        <ele>5.760205</ele>
        <time>2021-05-23T09:22:20.000Z</time>
      </trkpt>
      <trkpt lat="42.258223" lon="3.085241">
        <ele>5.766765</ele>
        <time>2021-05-23T09:22:20.000Z</time>
      </trkpt>
      <trkpt lat="42.258251" lon="3.085177">
        <ele>5.773171</ele>
        <time>2021-05-23T09:22:21.000Z</time>
      </trkpt>
      <trkpt lat="42.258237" lon="3.085118">
        <ele>5.779052</ele>
        <time>2021-05-23T09:22:22.000Z</time>
      </trkpt>
      <trkpt lat="42.258112" lon="3.084982">
        <ele>5.798787</ele>
        <time>2021-05-23T09:22:24.000Z</time>
      </trkpt>
      <trkpt lat="42.258076" lon="3.084987">
        <ele>5.80117</ele>
        <time>2021-05-23T09:22:24.000Z</time>
      </trkpt>
      <trkpt lat="42.258047" lon="3.08485">
        <ele>5.80713</ele>
        <time>2021-05-23T09:22:25.000Z</time>
      </trkpt>
      <trkpt lat="42.257889" lon="3.084221">
        <ele>5.834023</ele>
        <time>2021-05-23T09:22:30.000Z</time>
      </trkpt>
      <trkpt lat="42.257731" lon="3.083604">
        <ele>5.860864</ele>
        <time>2021-05-23T09:22:35.000Z</time>
      </trkpt>
      <trkpt lat="42.257718" lon="3.083588">
        <ele>5.861857</ele>
        <time>2021-05-23T09:22:35.000Z</time>
      </trkpt>
      <trkpt lat="42.257239" lon="3.081707">
        <ele>5.971488</ele>
        <time>2021-05-23T09:22:51.000Z</time>
      </trkpt>
      <trkpt lat="42.257222" lon="3.081692">
        <ele>5.97253</ele>
        <time>2021-05-23T09:22:51.000Z</time>
      </trkpt>
      <trkpt lat="42.257185" lon="3.0815">
        <ele>5.985831</ele>
        <time>2021-05-23T09:22:53.000Z</time>
      </trkpt>
      <trkpt lat="42.256969" lon="3.080687">
        <ele>6.042756</ele>
        <time>2021-05-23T09:23:00.000Z</time>
      </trkpt>
      <trkpt lat="42.257657" lon="3.079577">
        <ele>6.116057</ele>
        <time>2021-05-23T09:23:12.000Z</time>
      </trkpt>
      <trkpt lat="42.257978" lon="3.07905">
        <ele>6.149267</ele>
        <time>2021-05-23T09:23:18.000Z</time>
      </trkpt>
      <trkpt lat="42.258317" lon="3.078477">
        <ele>6.13374</ele>
        <time>2021-05-23T09:23:24.000Z</time>
      </trkpt>
      <trkpt lat="42.25858" lon="3.078068">
        <ele>6.035432</ele>
        <time>2021-05-23T09:23:28.000Z</time>
      </trkpt>
      <trkpt lat="42.25865" lon="3.078234">
        <ele>5.998452</ele>
        <time>2021-05-23T09:23:30.000Z</time>
      </trkpt>
      <trkpt lat="42.258686" lon="3.078338">
        <ele>5.977909</ele>
        <time>2021-05-23T09:23:31.000Z</time>
      </trkpt>
      <trkpt lat="42.258942" lon="3.079312">
        <ele>5.784652</ele>
        <time>2021-05-23T09:23:40.000Z</time>
      </trkpt>
      <trkpt lat="42.258935" lon="3.079327">
        <ele>5.782291</ele>
        <time>2021-05-23T09:23:40.000Z</time>
      </trkpt>
      <trkpt lat="42.258943" lon="3.079339">
        <ele>5.779317</ele>
        <time>2021-05-23T09:23:40.000Z</time>
      </trkpt>
      <trkpt lat="42.259128" lon="3.080594">
        <ele>5.528232</ele>
        <time>2021-05-23T09:23:51.000Z</time>
      </trkpt>
      <trkpt lat="42.259138" lon="3.080621">
        <ele>5.522743</ele>
        <time>2021-05-23T09:23:51.000Z</time>
      </trkpt>
      <trkpt lat="42.259167" lon="3.080817">
        <ele>5.482837</ele>
        <time>2021-05-23T09:23:53.000Z</time>
      </trkpt>
      <trkpt lat="42.259182" lon="3.081172">
        <ele>5.412392</ele>
        <time>2021-05-23T09:23:56.000Z</time>
      </trkpt>
      <trkpt lat="42.259215" lon="3.081602">
        <ele>5.325515</ele>
        <time>2021-05-23T09:24:00.000Z</time>
      </trkpt>
      <trkpt lat="42.259435" lon="3.082891">
        <ele>5.34214</ele>
        <time>2021-05-23T09:24:11.000Z</time>
      </trkpt>
      <trkpt lat="42.259459" lon="3.082922">
        <ele>5.347438</ele>
        <time>2021-05-23T09:24:11.000Z</time>
      </trkpt>
      <trkpt lat="42.259603" lon="3.083066">
        <ele>5.378429</ele>
        <time>2021-05-23T09:24:13.000Z</time>
      </trkpt>
      <trkpt lat="42.259623" lon="3.083092">
        <ele>5.382912</ele>
        <time>2021-05-23T09:24:13.000Z</time>
      </trkpt>
      <trkpt lat="42.259913" lon="3.083532">
        <ele>5.452951</ele>
        <time>2021-05-23T09:24:18.000Z</time>
      </trkpt>
      <trkpt lat="42.260218" lon="3.083809">
        <ele>5.513594</ele>
        <time>2021-05-23T09:24:22.000Z</time>
      </trkpt>
      <trkpt lat="42.261641" lon="3.084234">
        <ele>5.691108</ele>
        <time>2021-05-23T09:24:38.000Z</time>
      </trkpt>
      <trkpt lat="42.263399" lon="3.08419">
        <ele>5.346448</ele>
        <time>2021-05-23T09:24:58.000Z</time>
      </trkpt>
      <trkpt lat="42.263714" lon="3.084275">
        <ele>5.250982</ele>
        <time>2021-05-23T09:25:02.000Z</time>
      </trkpt>
      <trkpt lat="42.263895" lon="3.084414">
        <ele>5.186334</ele>
        <time>2021-05-23T09:25:04.000Z</time>
      </trkpt>
      <trkpt lat="42.264872" lon="3.085653">
        <ele>4.729541</ele>
        <time>2021-05-23T09:25:19.000Z</time>
      </trkpt>
      <trkpt lat="42.265481" lon="3.086664">
        <ele>4.603141</ele>
        <time>2021-05-23T09:25:30.000Z</time>
      </trkpt>
      <trkpt lat="42.266024" lon="3.087094">
        <ele>4.618844</ele>
        <time>2021-05-23T09:25:37.000Z</time>
      </trkpt>
      <trkpt lat="42.266993" lon="3.087704">
        <ele>4.549459</ele>
        <time>2021-05-23T09:25:49.000Z</time>
      </trkpt>
      <trkpt lat="42.268898" lon="3.088577">
        <ele>4.018945</ele>
        <time>2021-05-23T09:26:11.000Z</time>
      </trkpt>
      <trkpt lat="42.270262" lon="3.089788">
        <ele>3.373824</ele>
        <time>2021-05-23T09:26:29.000Z</time>
      </trkpt>
      <trkpt lat="42.270504" lon="3.089732">
        <ele>3.291651</ele>
        <time>2021-05-23T09:26:32.000Z</time>
      </trkpt>
      <trkpt lat="42.271037" lon="3.089455">
        <ele>3.087637</ele>
        <time>2021-05-23T09:26:38.000Z</time>
      </trkpt>
      <trkpt lat="42.271445" lon="3.089294">
        <ele>2.941077</ele>
        <time>2021-05-23T09:26:43.000Z</time>
      </trkpt>
      <trkpt lat="42.271694" lon="3.089282">
        <ele>2.918199</ele>
        <time>2021-05-23T09:26:46.000Z</time>
      </trkpt>
      <trkpt lat="42.2719" lon="3.089382">
        <ele>2.916126</ele>
        <time>2021-05-23T09:26:48.000Z</time>
      </trkpt>
      <trkpt lat="42.272017" lon="3.089628">
        <ele>2.914082</ele>
        <time>2021-05-23T09:26:50.000Z</time>
      </trkpt>
      <trkpt lat="42.273757" lon="3.093627">
        <ele>3.078954</ele>
        <time>2021-05-23T09:27:28.000Z</time>
      </trkpt>
      <trkpt lat="42.277613" lon="3.101661">
        <ele>3.499006</ele>
        <time>2021-05-23T09:28:47.000Z</time>
      </trkpt>
      <trkpt lat="42.277629" lon="3.101743">
        <ele>3.514305</ele>
        <time>2021-05-23T09:28:48.000Z</time>
      </trkpt>
      <trkpt lat="42.277647" lon="3.101879">
        <ele>3.540689</ele>
        <time>2021-05-23T09:28:49.000Z</time>
      </trkpt>
      <trkpt lat="42.277411" lon="3.104104">
        <ele>3.702629</ele>
        <time>2021-05-23T09:29:07.000Z</time>
      </trkpt>
      <trkpt lat="42.277405" lon="3.104227">
        <ele>3.66327</ele>
        <time>2021-05-23T09:29:08.000Z</time>
      </trkpt>
      <trkpt lat="42.277315" lon="3.104878">
        <ele>3.47801</ele>
        <time>2021-05-23T09:29:13.000Z</time>
      </trkpt>
      <trkpt lat="42.277207" lon="3.105322">
        <ele>3.343088</ele>
        <time>2021-05-23T09:29:17.000Z</time>
      </trkpt>
      <trkpt lat="42.276783" lon="3.106315">
        <ele>2.945101</ele>
        <time>2021-05-23T09:29:26.000Z</time>
      </trkpt>
      <trkpt lat="42.276193" lon="3.108909">
        <ele>2.003407</ele>
        <time>2021-05-23T09:29:48.000Z</time>
      </trkpt>
      <trkpt lat="42.27605" lon="3.109205">
        <ele>1.960837</ele>
        <time>2021-05-23T09:29:51.000Z</time>
      </trkpt>
      <trkpt lat="42.275446" lon="3.109566">
        <ele>1.852046</ele>
        <time>2021-05-23T09:29:58.000Z</time>
      </trkpt>
      <trkpt lat="42.275146" lon="3.109809">
        <ele>1.797227</ele>
        <time>2021-05-23T09:30:02.000Z</time>
      </trkpt>
      <trkpt lat="42.275008" lon="3.110045">
        <ele>1.782716</ele>
        <time>2021-05-23T09:30:04.000Z</time>
      </trkpt>
      <trkpt lat="42.274897" lon="3.11047">
        <ele>1.760866</ele>
        <time>2021-05-23T09:30:08.000Z</time>
      </trkpt>
      <trkpt lat="42.274957" lon="3.110921">
        <ele>1.739244</ele>
        <time>2021-05-23T09:30:12.000Z</time>
      </trkpt>
      <trkpt lat="42.27595" lon="3.113589">
        <ele>1.40219</ele>
        <time>2021-05-23T09:30:37.000Z</time>
      </trkpt>
      <trkpt lat="42.276125" lon="3.114226">
        <ele>1.292533</ele>
        <time>2021-05-23T09:30:43.000Z</time>
      </trkpt>
      <trkpt lat="42.276705" lon="3.115417">
        <ele>0.922569</ele>
        <time>2021-05-23T09:30:55.000Z</time>
      </trkpt>
      <trkpt lat="42.276852" lon="3.115603">
        <ele>0.85278</ele>
        <time>2021-05-23T09:30:57.000Z</time>
      </trkpt>
      <trkpt lat="42.277985" lon="3.116028">
        <ele>0.558738</ele>
        <time>2021-05-23T09:31:10.000Z</time>
      </trkpt>
      <trkpt lat="42.278156" lon="3.116097">
        <ele>0.52728</ele>
        <time>2021-05-23T09:31:12.000Z</time>
      </trkpt>
      <trkpt lat="42.279299" lon="3.116539">
        <ele>0.301983</ele>
        <time>2021-05-23T09:31:25.000Z</time>
      </trkpt>
      <trkpt lat="42.279557" lon="3.116624">
        <ele>0.242116</ele>
        <time>2021-05-23T09:31:28.000Z</time>
      </trkpt>
      <trkpt lat="42.280683" lon="3.117071">
        <ele>-0.031128</ele>
        <time>2021-05-23T09:31:41.000Z</time>
      </trkpt>
      <trkpt lat="42.280887" lon="3.117143">
        <ele>-0.070867</ele>
        <time>2021-05-23T09:31:43.000Z</time>
      </trkpt>
      <trkpt lat="42.282258" lon="3.117697">
        <ele>-0.294974</ele>
        <time>2021-05-23T09:31:59.000Z</time>
      </trkpt>
      <trkpt lat="42.283898" lon="3.118368">
        <ele>0.243111</ele>
        <time>2021-05-23T09:32:18.000Z</time>
      </trkpt>
      <trkpt lat="42.284289" lon="3.118602">
        <ele>0.44666</ele>
        <time>2021-05-23T09:32:23.000Z</time>
      </trkpt>
      <trkpt lat="42.285182" lon="3.119344">
        <ele>1.264402</ele>
        <time>2021-05-23T09:32:35.000Z</time>
      </trkpt>
      <trkpt lat="42.285569" lon="3.119671">
        <ele>1.613804</ele>
        <time>2021-05-23T09:32:40.000Z</time>
      </trkpt>
      <trkpt lat="42.285842" lon="3.119922">
        <ele>1.927069</ele>
        <time>2021-05-23T09:32:44.000Z</time>
      </trkpt>
      <trkpt lat="42.285875" lon="3.119968">
        <ele>1.978984</ele>
        <time>2021-05-23T09:32:45.000Z</time>
      </trkpt>
      <trkpt lat="42.286283" lon="3.120533">
        <ele>2.72897</ele>
        <time>2021-05-23T09:32:51.000Z</time>
      </trkpt>
      <trkpt lat="42.286282" lon="3.12054">
        <ele>2.728964</ele>
        <time>2021-05-23T09:32:51.000Z</time>
      </trkpt>
      <trkpt lat="42.28724" lon="3.121854">
        <ele>4.657554</ele>
        <time>2021-05-23T09:33:06.000Z</time>
      </trkpt>
      <trkpt lat="42.287437" lon="3.122111">
        <ele>5.186315</ele>
        <time>2021-05-23T09:33:09.000Z</time>
      </trkpt>
      <trkpt lat="42.287597" lon="3.122323">
        <ele>5.595565</ele>
        <time>2021-05-23T09:33:11.000Z</time>
      </trkpt>
      <trkpt lat="42.287754" lon="3.122473">
        <ele>5.979178</ele>
        <time>2021-05-23T09:33:13.000Z</time>
      </trkpt>
      <trkpt lat="42.288108" lon="3.122726">
        <ele>6.717188</ele>
        <time>2021-05-23T09:33:17.000Z</time>
      </trkpt>
      <trkpt lat="42.289065" lon="3.123402">
        <ele>8.606535</ele>
        <time>2021-05-23T09:33:29.000Z</time>
      </trkpt>
      <trkpt lat="42.289239" lon="3.123656">
        <ele>9.03731</ele>
        <time>2021-05-23T09:33:32.000Z</time>
      </trkpt>
      <trkpt lat="42.289626" lon="3.124207">
        <ele>9.971835</ele>
        <time>2021-05-23T09:33:38.000Z</time>
      </trkpt>
      <trkpt lat="42.290211" lon="3.12505">
        <ele>11.137241</ele>
        <time>2021-05-23T09:33:48.000Z</time>
      </trkpt>
      <trkpt lat="42.290363" lon="3.125253">
        <ele>11.39675</ele>
        <time>2021-05-23T09:33:50.000Z</time>
      </trkpt>
      <trkpt lat="42.290571" lon="3.125386">
        <ele>11.673011</ele>
        <time>2021-05-23T09:33:53.000Z</time>
      </trkpt>
      <trkpt lat="42.291622" lon="3.126002">
        <ele>12.917151</ele>
        <time>2021-05-23T09:34:06.000Z</time>
      </trkpt>
      <trkpt lat="42.293632" lon="3.127163">
        <ele>14.937733</ele>
        <time>2021-05-23T09:34:30.000Z</time>
      </trkpt>
      <trkpt lat="42.294434" lon="3.127649">
        <ele>15.826617</ele>
        <time>2021-05-23T09:34:40.000Z</time>
      </trkpt>
      <trkpt lat="42.294665" lon="3.127844">
        <ele>16.170229</ele>
        <time>2021-05-23T09:34:43.000Z</time>
      </trkpt>
      <trkpt lat="42.294923" lon="3.128151">
        <ele>16.786683</ele>
        <time>2021-05-23T09:34:47.000Z</time>
      </trkpt>
      <trkpt lat="42.296902" lon="3.13092">
        <ele>22.369525</ele>
        <time>2021-05-23T09:35:19.000Z</time>
      </trkpt>
      <trkpt lat="42.297188" lon="3.131399">
        <ele>23.402331</ele>
        <time>2021-05-23T09:35:24.000Z</time>
      </trkpt>
      <trkpt lat="42.299752" lon="3.135887">
        <ele>34.080783</ele>
        <time>2021-05-23T09:36:11.000Z</time>
      </trkpt>
      <trkpt lat="42.300596" lon="3.137378">
        <ele>36.561446</ele>
        <time>2021-05-23T09:36:26.000Z</time>
      </trkpt>
      <trkpt lat="42.300715" lon="3.137586">
        <ele>36.628896</ele>
        <time>2021-05-23T09:36:28.000Z</time>
      </trkpt>
      <trkpt lat="42.300293" lon="3.138038">
        <ele>36.808466</ele>
        <time>2021-05-23T09:36:34.000Z</time>
      </trkpt>
      <trkpt lat="42.300055" lon="3.138142">
        <ele>36.890696</ele>
        <time>2021-05-23T09:36:37.000Z</time>
      </trkpt>
      <trkpt lat="42.299623" lon="3.138015">
        <ele>37.035839</ele>
        <time>2021-05-23T09:36:42.000Z</time>
      </trkpt>
      <trkpt lat="42.299261" lon="3.138078">
        <ele>36.444018</ele>
        <time>2021-05-23T09:36:46.000Z</time>
      </trkpt>
      <trkpt lat="42.298885" lon="3.138294">
        <ele>35.684307</ele>
        <time>2021-05-23T09:36:51.000Z</time>
      </trkpt>
      <trkpt lat="42.298345" lon="3.138738">
        <ele>34.484959</ele>
        <time>2021-05-23T09:36:58.000Z</time>
      </trkpt>
      <trkpt lat="42.298008" lon="3.138885">
        <ele>33.843187</ele>
        <time>2021-05-23T09:37:02.000Z</time>
      </trkpt>
      <trkpt lat="42.297799" lon="3.138917">
        <ele>33.398295</ele>
        <time>2021-05-23T09:37:04.000Z</time>
      </trkpt>
      <trkpt lat="42.296652" lon="3.138643">
        <ele>30.779397</ele>
        <time>2021-05-23T09:37:17.000Z</time>
      </trkpt>
      <trkpt lat="42.296426" lon="3.138587">
        <ele>30.262155</ele>
        <time>2021-05-23T09:37:20.000Z</time>
      </trkpt>
      <trkpt lat="42.296252" lon="3.138583">
        <ele>29.899423</ele>
        <time>2021-05-23T09:37:22.000Z</time>
      </trkpt>
      <trkpt lat="42.294814" lon="3.13881">
        <ele>27.029234</ele>
        <time>2021-05-23T09:37:38.000Z</time>
      </trkpt>
      <trkpt lat="42.294333" lon="3.138779">
        <ele>26.056251</ele>
        <time>2021-05-23T09:37:43.000Z</time>
      </trkpt>
      <trkpt lat="42.294069" lon="3.138694">
        <ele>25.46653</ele>
        <time>2021-05-23T09:37:46.000Z</time>
      </trkpt>
      <trkpt lat="42.29318" lon="3.138128">
        <ele>23.313276</ele>
        <time>2021-05-23T09:37:57.000Z</time>
      </trkpt>
      <trkpt lat="42.293103" lon="3.138101">
        <ele>23.126732</ele>
        <time>2021-05-23T09:37:58.000Z</time>
      </trkpt>
      <trkpt lat="42.292269" lon="3.137857">
        <ele>21.113622</ele>
        <time>2021-05-23T09:38:07.000Z</time>
      </trkpt>
      <trkpt lat="42.291989" lon="3.137762">
        <ele>20.392433</ele>
        <time>2021-05-23T09:38:10.000Z</time>
      </trkpt>
      <trkpt lat="42.29062" lon="3.137727">
        <ele>17.060218</ele>
        <time>2021-05-23T09:38:25.000Z</time>
      </trkpt>
      <trkpt lat="42.289746" lon="3.13785">
        <ele>15.190158</ele>
        <time>2021-05-23T09:38:35.000Z</time>
      </trkpt>
      <trkpt lat="42.289399" lon="3.137938">
        <ele>14.409173</ele>
        <time>2021-05-23T09:38:39.000Z</time>
      </trkpt>
      <trkpt lat="42.288969" lon="3.138091">
        <ele>13.538799</ele>
        <time>2021-05-23T09:38:44.000Z</time>
      </trkpt>
      <trkpt lat="42.288845" lon="3.138098">
        <ele>13.354198</ele>
        <time>2021-05-23T09:38:45.000Z</time>
      </trkpt>
      <trkpt lat="42.288647" lon="3.13808">
        <ele>13.055227</ele>
        <time>2021-05-23T09:38:47.000Z</time>
      </trkpt>
      <trkpt lat="42.288515" lon="3.137963">
        <ele>12.798091</ele>
        <time>2021-05-23T09:38:49.000Z</time>
      </trkpt>
      <trkpt lat="42.287943" lon="3.137391">
        <ele>11.707297</ele>
        <time>2021-05-23T09:38:57.000Z</time>
      </trkpt>
      <trkpt lat="42.287804" lon="3.137252">
        <ele>11.430458</ele>
        <time>2021-05-23T09:38:59.000Z</time>
      </trkpt>
      <trkpt lat="42.287643" lon="3.137144">
        <ele>11.131859</ele>
        <time>2021-05-23T09:39:01.000Z</time>
      </trkpt>
      <trkpt lat="42.285884" lon="3.136197">
        <ele>8.694482</ele>
        <time>2021-05-23T09:39:22.000Z</time>
      </trkpt>
      <trkpt lat="42.285137" lon="3.136001">
        <ele>7.990769</ele>
        <time>2021-05-23T09:39:30.000Z</time>
      </trkpt>
      <trkpt lat="42.283806" lon="3.135377">
        <ele>6.803522</ele>
        <time>2021-05-23T09:39:46.000Z</time>
      </trkpt>
      <trkpt lat="42.283707" lon="3.135344">
        <ele>6.732994</ele>
        <time>2021-05-23T09:39:47.000Z</time>
      </trkpt>
      <trkpt lat="42.283475" lon="3.135214">
        <ele>6.581588</ele>
        <time>2021-05-23T09:39:50.000Z</time>
      </trkpt>
      <trkpt lat="42.279874" lon="3.131835">
        <ele>3.647331</ele>
        <time>2021-05-23T09:40:39.000Z</time>
      </trkpt>
      <trkpt lat="42.279558" lon="3.131516">
        <ele>3.307497</ele>
        <time>2021-05-23T09:40:43.000Z</time>
      </trkpt>
      <trkpt lat="42.279202" lon="3.131294">
        <ele>2.882292</ele>
        <time>2021-05-23T09:40:47.000Z</time>
      </trkpt>
      <trkpt lat="42.278772" lon="3.131274">
        <ele>2.424427</ele>
        <time>2021-05-23T09:40:52.000Z</time>
      </trkpt>
      <trkpt lat="42.277909" lon="3.131719">
        <ele>1.491974</ele>
        <time>2021-05-23T09:41:02.000Z</time>
      </trkpt>
      <trkpt lat="42.277398" lon="3.131905">
        <ele>1.579454</ele>
        <time>2021-05-23T09:41:08.000Z</time>
      </trkpt>
      <trkpt lat="42.276912" lon="3.131972">
        <ele>1.660465</ele>
        <time>2021-05-23T09:41:13.000Z</time>
      </trkpt>
      <trkpt lat="42.275827" lon="3.131934">
        <ele>2.057493</ele>
        <time>2021-05-23T09:41:25.000Z</time>
      </trkpt>
      <trkpt lat="42.275139" lon="3.132317">
        <ele>2.603643</ele>
        <time>2021-05-23T09:41:33.000Z</time>
      </trkpt>
      <trkpt lat="42.274957" lon="3.132352">
        <ele>2.738869</ele>
        <time>2021-05-23T09:41:35.000Z</time>
      </trkpt>
      <trkpt lat="42.274693" lon="3.1323">
        <ele>2.937919</ele>
        <time>2021-05-23T09:41:38.000Z</time>
      </trkpt>
      <trkpt lat="42.274257" lon="3.131999">
        <ele>3.237234</ele>
        <time>2021-05-23T09:41:43.000Z</time>
      </trkpt>
      <trkpt lat="42.274112" lon="3.131957">
        <ele>3.310213</ele>
        <time>2021-05-23T09:41:45.000Z</time>
      </trkpt>
      <trkpt lat="42.27397" lon="3.13201">
        <ele>3.384806</ele>
        <time>2021-05-23T09:41:47.000Z</time>
      </trkpt>
      <trkpt lat="42.27299" lon="3.132902">
        <ele>3.951286</ele>
        <time>2021-05-23T09:42:00.000Z</time>
      </trkpt>
      <trkpt lat="42.272899" lon="3.133028">
        <ele>3.994098</ele>
        <time>2021-05-23T09:42:01.000Z</time>
      </trkpt>
      <trkpt lat="42.272781" lon="3.133349">
        <ele>4.014835</ele>
        <time>2021-05-23T09:42:04.000Z</time>
      </trkpt>
      <trkpt lat="42.272635" lon="3.133973">
        <ele>4.050967</ele>
        <time>2021-05-23T09:42:09.000Z</time>
      </trkpt>
      <trkpt lat="42.272705" lon="3.134446">
        <ele>4.077208</ele>
        <time>2021-05-23T09:42:13.000Z</time>
      </trkpt>
      <trkpt lat="42.272696" lon="3.134492">
        <ele>4.07948</ele>
        <time>2021-05-23T09:42:13.000Z</time>
      </trkpt>
      <trkpt lat="42.272704" lon="3.134437">
        <ele>4.081739</ele>
        <time>2021-05-23T09:42:13.000Z</time>
      </trkpt>
      <trkpt lat="42.27263" lon="3.133974">
        <ele>4.10799</ele>
        <time>2021-05-23T09:42:17.000Z</time>
      </trkpt>
      <trkpt lat="42.272783" lon="3.133354">
        <ele>4.035354</ele>
        <time>2021-05-23T09:42:22.000Z</time>
      </trkpt>
      <trkpt lat="42.272893" lon="3.133015">
        <ele>3.934106</ele>
        <time>2021-05-23T09:42:25.000Z</time>
      </trkpt>
      <trkpt lat="42.272987" lon="3.132904">
        <ele>3.887198</ele>
        <time>2021-05-23T09:42:26.000Z</time>
      </trkpt>
      <trkpt lat="42.27397" lon="3.132016">
        <ele>3.446921</ele>
        <time>2021-05-23T09:42:39.000Z</time>
      </trkpt>
      <trkpt lat="42.274108" lon="3.131967">
        <ele>3.337539</ele>
        <time>2021-05-23T09:42:41.000Z</time>
      </trkpt>
      <trkpt lat="42.274262" lon="3.132009">
        <ele>3.230486</ele>
        <time>2021-05-23T09:42:43.000Z</time>
      </trkpt>
      <trkpt lat="42.2747" lon="3.132295">
        <ele>2.888204</ele>
        <time>2021-05-23T09:42:48.000Z</time>
      </trkpt>
      <trkpt lat="42.274965" lon="3.132361">
        <ele>2.699719</ele>
        <time>2021-05-23T09:42:51.000Z</time>
      </trkpt>
      <trkpt lat="42.275131" lon="3.132305">
        <ele>2.571656</ele>
        <time>2021-05-23T09:42:53.000Z</time>
      </trkpt>
      <trkpt lat="42.27581" lon="3.131937">
        <ele>2.097209</ele>
        <time>2021-05-23T09:43:01.000Z</time>
      </trkpt>
      <trkpt lat="42.276913" lon="3.131958">
        <ele>1.557223</ele>
        <time>2021-05-23T09:43:13.000Z</time>
      </trkpt>
      <trkpt lat="42.277406" lon="3.131897">
        <ele>1.318156</ele>
        <time>2021-05-23T09:43:19.000Z</time>
      </trkpt>
      <trkpt lat="42.277894" lon="3.131715">
        <ele>1.713387</ele>
        <time>2021-05-23T09:43:25.000Z</time>
      </trkpt>
      <trkpt lat="42.278771" lon="3.131261">
        <ele>2.457643</ele>
        <time>2021-05-23T09:43:35.000Z</time>
      </trkpt>
      <trkpt lat="42.279195" lon="3.131289">
        <ele>2.793183</ele>
        <time>2021-05-23T09:43:40.000Z</time>
      </trkpt>
      <trkpt lat="42.279557" lon="3.131517">
        <ele>3.096689</ele>
        <time>2021-05-23T09:43:44.000Z</time>
      </trkpt>
      <trkpt lat="42.27987" lon="3.131844">
        <ele>3.405085</ele>
        <time>2021-05-23T09:43:48.000Z</time>
      </trkpt>
      <trkpt lat="42.283474" lon="3.135221">
        <ele>6.523446</ele>
        <time>2021-05-23T09:44:37.000Z</time>
      </trkpt>
      <trkpt lat="42.283703" lon="3.135345">
        <ele>6.689734</ele>
        <time>2021-05-23T09:44:40.000Z</time>
      </trkpt>
      <trkpt lat="42.28382" lon="3.135379">
        <ele>6.782841</ele>
        <time>2021-05-23T09:44:41.000Z</time>
      </trkpt>
      <trkpt lat="42.285142" lon="3.136004">
        <ele>7.939904</ele>
        <time>2021-05-23T09:44:57.000Z</time>
      </trkpt>
      <trkpt lat="42.285891" lon="3.1362">
        <ele>8.77799</ele>
        <time>2021-05-23T09:45:05.000Z</time>
      </trkpt>
      <trkpt lat="42.287638" lon="3.137136">
        <ele>11.172835</ele>
        <time>2021-05-23T09:45:26.000Z</time>
      </trkpt>
      <trkpt lat="42.287798" lon="3.137262">
        <ele>11.447928</ele>
        <time>2021-05-23T09:45:28.000Z</time>
      </trkpt>
      <trkpt lat="42.287952" lon="3.137404">
        <ele>11.702968</ele>
        <time>2021-05-23T09:45:30.000Z</time>
      </trkpt>
      <trkpt lat="42.288509" lon="3.137968">
        <ele>12.707882</ele>
        <time>2021-05-23T09:45:38.000Z</time>
      </trkpt>
      <trkpt lat="42.288653" lon="3.13808">
        <ele>12.988377</ele>
        <time>2021-05-23T09:45:40.000Z</time>
      </trkpt>
      <trkpt lat="42.288849" lon="3.138101">
        <ele>13.361708</ele>
        <time>2021-05-23T09:45:42.000Z</time>
      </trkpt>
      <trkpt lat="42.288969" lon="3.138101">
        <ele>13.592238</ele>
        <time>2021-05-23T09:45:43.000Z</time>
      </trkpt>
      <trkpt lat="42.289392" lon="3.137933">
        <ele>14.47506</ele>
        <time>2021-05-23T09:45:48.000Z</time>
      </trkpt>
      <trkpt lat="42.28976" lon="3.137836">
        <ele>15.184051</ele>
        <time>2021-05-23T09:45:52.000Z</time>
      </trkpt>
      <trkpt lat="42.290621" lon="3.137737">
        <ele>17.031672</ele>
        <time>2021-05-23T09:46:02.000Z</time>
      </trkpt>
      <trkpt lat="42.291983" lon="3.137759">
        <ele>20.410877</ele>
        <time>2021-05-23T09:46:17.000Z</time>
      </trkpt>
      <trkpt lat="42.292269" lon="3.137845">
        <ele>21.102148</ele>
        <time>2021-05-23T09:46:20.000Z</time>
      </trkpt>
      <trkpt lat="42.29309" lon="3.138105">
        <ele>23.104821</ele>
        <time>2021-05-23T09:46:29.000Z</time>
      </trkpt>
      <trkpt lat="42.293183" lon="3.13812">
        <ele>23.304624</ele>
        <time>2021-05-23T09:46:30.000Z</time>
      </trkpt>
      <trkpt lat="42.294068" lon="3.1387">
        <ele>25.509145</ele>
        <time>2021-05-23T09:46:41.000Z</time>
      </trkpt>
      <trkpt lat="42.294326" lon="3.138784">
        <ele>26.033022</ele>
        <time>2021-05-23T09:46:44.000Z</time>
      </trkpt>
      <trkpt lat="42.294826" lon="3.138818">
        <ele>26.991266</ele>
        <time>2021-05-23T09:46:50.000Z</time>
      </trkpt>
      <trkpt lat="42.296253" lon="3.138585">
        <ele>29.963617</ele>
        <time>2021-05-23T09:47:06.000Z</time>
      </trkpt>
      <trkpt lat="42.296416" lon="3.138578">
        <ele>30.313616</ele>
        <time>2021-05-23T09:47:08.000Z</time>
      </trkpt>
      <trkpt lat="42.296648" lon="3.138644">
        <ele>30.812696</ele>
        <time>2021-05-23T09:47:11.000Z</time>
      </trkpt>
      <trkpt lat="42.297792" lon="3.138907">
        <ele>33.353507</ele>
        <time>2021-05-23T09:47:24.000Z</time>
      </trkpt>
      <trkpt lat="42.298019" lon="3.138886">
        <ele>33.816918</ele>
        <time>2021-05-23T09:47:27.000Z</time>
      </trkpt>
      <trkpt lat="42.298334" lon="3.138741">
        <ele>34.573432</ele>
        <time>2021-05-23T09:47:31.000Z</time>
      </trkpt>
      <trkpt lat="42.298892" lon="3.138301">
        <ele>35.987233</ele>
        <time>2021-05-23T09:47:38.000Z</time>
      </trkpt>
      <trkpt lat="42.299271" lon="3.138089">
        <ele>36.945962</ele>
        <time>2021-05-23T09:47:43.000Z</time>
      </trkpt>
      <trkpt lat="42.299631" lon="3.138001">
        <ele>37.842267</ele>
        <time>2021-05-23T09:47:47.000Z</time>
      </trkpt>
      <trkpt lat="42.30006" lon="3.138136">
        <ele>38.915405</ele>
        <time>2021-05-23T09:47:52.000Z</time>
      </trkpt>
      <trkpt lat="42.300294" lon="3.138029">
        <ele>39.523382</ele>
        <time>2021-05-23T09:47:55.000Z</time>
      </trkpt>
      <trkpt lat="42.300721" lon="3.137595">
        <ele>40.858849</ele>
        <time>2021-05-23T09:48:01.000Z</time>
      </trkpt>
      <trkpt lat="42.301176" lon="3.138385">
        <ele>42.818861</ele>
        <time>2021-05-23T09:48:09.000Z</time>
      </trkpt>
      <trkpt lat="42.301312" lon="3.138526">
        <ele>43.282849</ele>
        <time>2021-05-23T09:48:11.000Z</time>
      </trkpt>
      <trkpt lat="42.301444" lon="3.138618">
        <ele>43.645843</ele>
        <time>2021-05-23T09:48:13.000Z</time>
      </trkpt>
      <trkpt lat="42.302249" lon="3.138882">
        <ele>45.844715</ele>
        <time>2021-05-23T09:48:22.000Z</time>
      </trkpt>
      <trkpt lat="42.302375" lon="3.13891">
        <ele>46.141792</ele>
        <time>2021-05-23T09:48:23.000Z</time>
      </trkpt>
      <trkpt lat="42.302782" lon="3.138831">
        <ele>47.178969</ele>
        <time>2021-05-23T09:48:28.000Z</time>
      </trkpt>
      <trkpt lat="42.303081" lon="3.138908">
        <ele>47.920976</ele>
        <time>2021-05-23T09:48:31.000Z</time>
      </trkpt>
      <trkpt lat="42.303163" lon="3.138995">
        <ele>48.166949</ele>
        <time>2021-05-23T09:48:32.000Z</time>
      </trkpt>
      <trkpt lat="42.303182" lon="3.139076">
        <ele>48.339977</ele>
        <time>2021-05-23T09:48:33.000Z</time>
      </trkpt>
      <trkpt lat="42.303507" lon="3.140049">
        <ele>50.396951</ele>
        <time>2021-05-23T09:48:42.000Z</time>
      </trkpt>
      <trkpt lat="42.303739" lon="3.140462">
        <ele>51.558671</ele>
        <time>2021-05-23T09:48:46.000Z</time>
      </trkpt>
      <trkpt lat="42.304959" lon="3.14242">
        <ele>56.635409</ele>
        <time>2021-05-23T09:49:07.000Z</time>
      </trkpt>
      <trkpt lat="42.305444" lon="3.142942">
        <ele>57.743486</ele>
        <time>2021-05-23T09:49:14.000Z</time>
      </trkpt>
      <trkpt lat="42.3059" lon="3.143311">
        <ele>58.670097</ele>
        <time>2021-05-23T09:49:20.000Z</time>
      </trkpt>
      <trkpt lat="42.305441" lon="3.142949">
        <ele>57.841689</ele>
        <time>2021-05-23T09:49:26.000Z</time>
      </trkpt>
      <trkpt lat="42.304954" lon="3.142415">
        <ele>56.621919</ele>
        <time>2021-05-23T09:49:33.000Z</time>
      </trkpt>
      <trkpt lat="42.303736" lon="3.140462">
        <ele>51.58619</ele>
        <time>2021-05-23T09:49:54.000Z</time>
      </trkpt>
      <trkpt lat="42.303511" lon="3.140049">
        <ele>50.434226</ele>
        <time>2021-05-23T09:49:58.000Z</time>
      </trkpt>
      <trkpt lat="42.303187" lon="3.139068">
        <ele>48.294793</ele>
        <time>2021-05-23T09:50:07.000Z</time>
      </trkpt>
      <trkpt lat="42.30316" lon="3.13899">
        <ele>48.118606</ele>
        <time>2021-05-23T09:50:08.000Z</time>
      </trkpt>
      <trkpt lat="42.303071" lon="3.138917">
        <ele>47.868163</ele>
        <time>2021-05-23T09:50:09.000Z</time>
      </trkpt>
      <trkpt lat="42.302791" lon="3.13882">
        <ele>47.11265</ele>
        <time>2021-05-23T09:50:12.000Z</time>
      </trkpt>
      <trkpt lat="42.302371" lon="3.138896">
        <ele>46.056623</ele>
        <time>2021-05-23T09:50:17.000Z</time>
      </trkpt>
      <trkpt lat="42.302246" lon="3.13888">
        <ele>45.754141</ele>
        <time>2021-05-23T09:50:18.000Z</time>
      </trkpt>
      <trkpt lat="42.301434" lon="3.138604">
        <ele>43.229487</ele>
        <time>2021-05-23T09:50:27.000Z</time>
      </trkpt>
      <trkpt lat="42.301306" lon="3.138531">
        <ele>42.791597</ele>
        <time>2021-05-23T09:50:29.000Z</time>
      </trkpt>
      <trkpt lat="42.301185" lon="3.138369">
        <ele>42.231899</ele>
        <time>2021-05-23T09:50:31.000Z</time>
      </trkpt>
      <trkpt lat="42.300717" lon="3.1376">
        <ele>39.867534</ele>
        <time>2021-05-23T09:50:39.000Z</time>
      </trkpt>
      <trkpt lat="42.30061" lon="3.137367">
        <ele>39.212904</ele>
        <time>2021-05-23T09:50:41.000Z</time>
      </trkpt>
      <trkpt lat="42.299738" lon="3.135891">
        <ele>34.66796</ele>
        <time>2021-05-23T09:50:57.000Z</time>
      </trkpt>
      <trkpt lat="42.297179" lon="3.131403">
        <ele>23.442053</ele>
        <time>2021-05-23T09:51:44.000Z</time>
      </trkpt>
      <trkpt lat="42.29691" lon="3.130915">
        <ele>22.430737</ele>
        <time>2021-05-23T09:51:49.000Z</time>
      </trkpt>
      <trkpt lat="42.294918" lon="3.12816">
        <ele>16.668414</ele>
        <time>2021-05-23T09:52:21.000Z</time>
      </trkpt>
      <trkpt lat="42.294661" lon="3.127833">
        <ele>16.243279</ele>
        <time>2021-05-23T09:52:25.000Z</time>
      </trkpt>
      <trkpt lat="42.294442" lon="3.127654">
        <ele>15.933395</ele>
        <time>2021-05-23T09:52:28.000Z</time>
      </trkpt>
      <trkpt lat="42.293629" lon="3.127172">
        <ele>14.926677</ele>
        <time>2021-05-23T09:52:38.000Z</time>
      </trkpt>
      <trkpt lat="42.291619" lon="3.125993">
        <ele>12.93804</ele>
        <time>2021-05-23T09:53:02.000Z</time>
      </trkpt>
      <trkpt lat="42.290585" lon="3.125391">
        <ele>11.673916</ele>
        <time>2021-05-23T09:53:15.000Z</time>
      </trkpt>
      <trkpt lat="42.290366" lon="3.125246">
        <ele>11.415537</ele>
        <time>2021-05-23T09:53:18.000Z</time>
      </trkpt>
      <trkpt lat="42.290214" lon="3.125054">
        <ele>11.172824</ele>
        <time>2021-05-23T09:53:20.000Z</time>
      </trkpt>
      <trkpt lat="42.289621" lon="3.124209">
        <ele>9.922811</ele>
        <time>2021-05-23T09:53:30.000Z</time>
      </trkpt>
      <trkpt lat="42.289241" lon="3.123653">
        <ele>9.060899</ele>
        <time>2021-05-23T09:53:36.000Z</time>
      </trkpt>
      <trkpt lat="42.289058" lon="3.123413">
        <ele>8.663591</ele>
        <time>2021-05-23T09:53:39.000Z</time>
      </trkpt>
      <trkpt lat="42.288105" lon="3.122722">
        <ele>6.699811</ele>
        <time>2021-05-23T09:53:51.000Z</time>
      </trkpt>
      <trkpt lat="42.287769" lon="3.122485">
        <ele>5.946882</ele>
        <time>2021-05-23T09:53:55.000Z</time>
      </trkpt>
      <trkpt lat="42.287597" lon="3.122312">
        <ele>5.555508</ele>
        <time>2021-05-23T09:53:57.000Z</time>
      </trkpt>
      <trkpt lat="42.287435" lon="3.122126">
        <ele>5.137989</ele>
        <time>2021-05-23T09:53:59.000Z</time>
      </trkpt>
      <trkpt lat="42.287237" lon="3.121858">
        <ele>4.637061</ele>
        <time>2021-05-23T09:54:02.000Z</time>
      </trkpt>
      <trkpt lat="42.28628" lon="3.120526">
        <ele>2.677269</ele>
        <time>2021-05-23T09:54:17.000Z</time>
      </trkpt>
      <trkpt lat="42.285843" lon="3.119934">
        <ele>1.935429</ele>
        <time>2021-05-23T09:54:24.000Z</time>
      </trkpt>
      <trkpt lat="42.28558" lon="3.119656">
        <ele>1.656852</ele>
        <time>2021-05-23T09:54:28.000Z</time>
      </trkpt>
      <trkpt lat="42.285185" lon="3.119341">
        <ele>1.275113</ele>
        <time>2021-05-23T09:54:33.000Z</time>
      </trkpt>
      <trkpt lat="42.284301" lon="3.118594">
        <ele>0.48887</ele>
        <time>2021-05-23T09:54:45.000Z</time>
      </trkpt>
      <trkpt lat="42.283897" lon="3.118368">
        <ele>0.269867</ele>
        <time>2021-05-23T09:54:50.000Z</time>
      </trkpt>
      <trkpt lat="42.282263" lon="3.117706">
        <ele>-0.226947</ele>
        <time>2021-05-23T09:55:09.000Z</time>
      </trkpt>
      <trkpt lat="42.280878" lon="3.117137">
        <ele>-0.092511</ele>
        <time>2021-05-23T09:55:25.000Z</time>
      </trkpt>
      <trkpt lat="42.280692" lon="3.117071">
        <ele>-0.038704</ele>
        <time>2021-05-23T09:55:27.000Z</time>
      </trkpt>
      <trkpt lat="42.279555" lon="3.116625">
        <ele>0.274562</ele>
        <time>2021-05-23T09:55:40.000Z</time>
      </trkpt>
      <trkpt lat="42.279296" lon="3.116534">
        <ele>0.32696</ele>
        <time>2021-05-23T09:55:43.000Z</time>
      </trkpt>
      <trkpt lat="42.278165" lon="3.116082">
        <ele>0.50261</ele>
        <time>2021-05-23T09:55:56.000Z</time>
      </trkpt>
      <trkpt lat="42.277978" lon="3.116034">
        <ele>0.528719</ele>
        <time>2021-05-23T09:55:58.000Z</time>
      </trkpt>
      <trkpt lat="42.27686" lon="3.115595">
        <ele>0.866376</ele>
        <time>2021-05-23T09:56:11.000Z</time>
      </trkpt>
      <trkpt lat="42.276715" lon="3.1154">
        <ele>0.93284</ele>
        <time>2021-05-23T09:56:13.000Z</time>
      </trkpt>
      <trkpt lat="42.276116" lon="3.114227">
        <ele>1.258505</ele>
        <time>2021-05-23T09:56:25.000Z</time>
      </trkpt>
      <trkpt lat="42.275951" lon="3.113595">
        <ele>1.385084</ele>
        <time>2021-05-23T09:56:31.000Z</time>
      </trkpt>
      <trkpt lat="42.274944" lon="3.110924">
        <ele>1.745539</ele>
        <time>2021-05-23T09:56:56.000Z</time>
      </trkpt>
      <trkpt lat="42.274887" lon="3.11048">
        <ele>1.775982</ele>
        <time>2021-05-23T09:57:00.000Z</time>
      </trkpt>
      <trkpt lat="42.275016" lon="3.110051">
        <ele>1.806556</ele>
        <time>2021-05-23T09:57:04.000Z</time>
      </trkpt>
      <trkpt lat="42.275135" lon="3.109808">
        <ele>1.826714</ele>
        <time>2021-05-23T09:57:06.000Z</time>
      </trkpt>
      <trkpt lat="42.275455" lon="3.109558">
        <ele>1.859343</ele>
        <time>2021-05-23T09:57:10.000Z</time>
      </trkpt>
      <trkpt lat="42.276054" lon="3.109208">
        <ele>1.919505</ele>
        <time>2021-05-23T09:57:17.000Z</time>
      </trkpt>
      <trkpt lat="42.276199" lon="3.108908">
        <ele>1.943035</ele>
        <time>2021-05-23T09:57:20.000Z</time>
      </trkpt>
      <trkpt lat="42.27679" lon="3.106332">
        <ele>2.893582</ele>
        <time>2021-05-23T09:57:42.000Z</time>
      </trkpt>
      <trkpt lat="42.277215" lon="3.105319">
        <ele>3.355424</ele>
        <time>2021-05-23T09:57:52.000Z</time>
      </trkpt>
      <trkpt lat="42.277312" lon="3.104883">
        <ele>3.546879</ele>
        <time>2021-05-23T09:57:56.000Z</time>
      </trkpt>
      <trkpt lat="42.2774" lon="3.104226">
        <ele>3.809771</ele>
        <time>2021-05-23T09:58:01.000Z</time>
      </trkpt>
      <trkpt lat="42.277421" lon="3.104089">
        <ele>3.848344</ele>
        <time>2021-05-23T09:58:02.000Z</time>
      </trkpt>
      <trkpt lat="42.277645" lon="3.101896">
        <ele>3.513591</ele>
        <time>2021-05-23T09:58:20.000Z</time>
      </trkpt>
      <trkpt lat="42.277625" lon="3.101734">
        <ele>3.490911</ele>
        <time>2021-05-23T09:58:21.000Z</time>
      </trkpt>
      <trkpt lat="42.277606" lon="3.101646">
        <ele>3.485036</ele>
        <time>2021-05-23T09:58:22.000Z</time>
      </trkpt>
      <trkpt lat="42.27376" lon="3.093632">
        <ele>3.088771</ele>
        <time>2021-05-23T09:59:41.000Z</time>
      </trkpt>
      <trkpt lat="42.272021" lon="3.089624">
        <ele>2.877596</ele>
        <time>2021-05-23T10:00:19.000Z</time>
      </trkpt>
      <trkpt lat="42.27189" lon="3.089396">
        <ele>2.869357</ele>
        <time>2021-05-23T10:00:21.000Z</time>
      </trkpt>
      <trkpt lat="42.271699" lon="3.08929">
        <ele>2.926346</ele>
        <time>2021-05-23T10:00:23.000Z</time>
      </trkpt>
      <trkpt lat="42.271442" lon="3.089294">
        <ele>2.994946</ele>
        <time>2021-05-23T10:00:26.000Z</time>
      </trkpt>
      <trkpt lat="42.271035" lon="3.089453">
        <ele>3.112235</ele>
        <time>2021-05-23T10:00:31.000Z</time>
      </trkpt>
      <trkpt lat="42.270503" lon="3.089747">
        <ele>3.275523</ele>
        <time>2021-05-23T10:00:37.000Z</time>
      </trkpt>
      <trkpt lat="42.270258" lon="3.089781">
        <ele>3.341288</ele>
        <time>2021-05-23T10:00:40.000Z</time>
      </trkpt>
      <trkpt lat="42.268902" lon="3.088594">
        <ele>4.040431</ele>
        <time>2021-05-23T10:00:58.000Z</time>
      </trkpt>
      <trkpt lat="42.266984" lon="3.087704">
        <ele>4.602373</ele>
        <time>2021-05-23T10:01:21.000Z</time>
      </trkpt>
      <trkpt lat="42.266013" lon="3.087082">
        <ele>4.58382</ele>
        <time>2021-05-23T10:01:33.000Z</time>
      </trkpt>
      <trkpt lat="42.265482" lon="3.08667">
        <ele>4.562966</ele>
        <time>2021-05-23T10:01:40.000Z</time>
      </trkpt>
      <trkpt lat="42.26486" lon="3.085661">
        <ele>4.774387</ele>
        <time>2021-05-23T10:01:51.000Z</time>
      </trkpt>
      <trkpt lat="42.263899" lon="3.084419">
        <ele>5.161548</ele>
        <time>2021-05-23T10:02:06.000Z</time>
      </trkpt>
      <trkpt lat="42.263711" lon="3.084273">
        <ele>5.233446</ele>
        <time>2021-05-23T10:02:08.000Z</time>
      </trkpt>
      <trkpt lat="42.263393" lon="3.084189">
        <ele>5.343165</ele>
        <time>2021-05-23T10:02:12.000Z</time>
      </trkpt>
      <trkpt lat="42.261651" lon="3.084235">
        <ele>5.650614</ele>
        <time>2021-05-23T10:02:31.000Z</time>
      </trkpt>
      <trkpt lat="42.260222" lon="3.083802">
        <ele>5.526846</ele>
        <time>2021-05-23T10:02:47.000Z</time>
      </trkpt>
      <trkpt lat="42.259911" lon="3.083524">
        <ele>5.445847</ele>
        <time>2021-05-23T10:02:51.000Z</time>
      </trkpt>
      <trkpt lat="42.259632" lon="3.083096">
        <ele>5.352298</ele>
        <time>2021-05-23T10:02:56.000Z</time>
      </trkpt>
      <trkpt lat="42.259596" lon="3.083073">
        <ele>5.346335</ele>
        <time>2021-05-23T10:02:56.000Z</time>
      </trkpt>
      <trkpt lat="42.259453" lon="3.082909">
        <ele>5.30495</ele>
        <time>2021-05-23T10:02:58.000Z</time>
      </trkpt>
      <trkpt lat="42.259421" lon="3.082883">
        <ele>5.297868</ele>
        <time>2021-05-23T10:02:58.000Z</time>
      </trkpt>
      <trkpt lat="42.259223" lon="3.081598">
        <ele>5.373214</ele>
        <time>2021-05-23T10:03:09.000Z</time>
      </trkpt>
      <trkpt lat="42.259166" lon="3.081156">
        <ele>5.431988</ele>
        <time>2021-05-23T10:03:13.000Z</time>
      </trkpt>
      <trkpt lat="42.259171" lon="3.080805">
        <ele>5.479644</ele>
        <time>2021-05-23T10:03:16.000Z</time>
      </trkpt>
      <trkpt lat="42.259139" lon="3.080607">
        <ele>5.506633</ele>
        <time>2021-05-23T10:03:18.000Z</time>
      </trkpt>
      <trkpt lat="42.259131" lon="3.080578">
        <ele>5.510357</ele>
        <time>2021-05-23T10:03:18.000Z</time>
      </trkpt>
      <trkpt lat="42.258944" lon="3.079341">
        <ele>5.765318</ele>
        <time>2021-05-23T10:03:28.000Z</time>
      </trkpt>
      <trkpt lat="42.258942" lon="3.079324">
        <ele>5.769026</ele>
        <time>2021-05-23T10:03:28.000Z</time>
      </trkpt>
      <trkpt lat="42.258942" lon="3.079312">
        <ele>5.771973</ele>
        <time>2021-05-23T10:03:28.000Z</time>
      </trkpt>
      <trkpt lat="42.258697" lon="3.078327">
        <ele>6.012781</ele>
        <time>2021-05-23T10:03:37.000Z</time>
      </trkpt>
      <trkpt lat="42.258655" lon="3.078236">
        <ele>6.038372</ele>
        <time>2021-05-23T10:03:38.000Z</time>
      </trkpt>
      <trkpt lat="42.258577" lon="3.078062">
        <ele>6.084454</ele>
        <time>2021-05-23T10:03:40.000Z</time>
      </trkpt>
      <trkpt lat="42.258324" lon="3.078468">
        <ele>6.131487</ele>
        <time>2021-05-23T10:03:44.000Z</time>
      </trkpt>
      <trkpt lat="42.257968" lon="3.079061">
        <ele>6.121007</ele>
        <time>2021-05-23T10:03:50.000Z</time>
      </trkpt>
      <trkpt lat="42.257652" lon="3.079574">
        <ele>6.111554</ele>
        <time>2021-05-23T10:03:55.000Z</time>
      </trkpt>
      <trkpt lat="42.256966" lon="3.080678">
        <ele>6.046767</ele>
        <time>2021-05-23T10:04:07.000Z</time>
      </trkpt>
      <trkpt lat="42.257181" lon="3.081505">
        <ele>5.981975</ele>
        <time>2021-05-23T10:04:14.000Z</time>
      </trkpt>
      <trkpt lat="42.257227" lon="3.081684">
        <ele>5.966846</ele>
        <time>2021-05-23T10:04:16.000Z</time>
      </trkpt>
      <trkpt lat="42.257239" lon="3.08171">
        <ele>5.965666</ele>
        <time>2021-05-23T10:04:16.000Z</time>
      </trkpt>
      <trkpt lat="42.25771" lon="3.083584">
        <ele>5.804462</ele>
        <time>2021-05-23T10:04:32.000Z</time>
      </trkpt>
      <trkpt lat="42.257721" lon="3.083604">
        <ele>5.802426</ele>
        <time>2021-05-23T10:04:32.000Z</time>
      </trkpt>
      <trkpt lat="42.257888" lon="3.084218">
        <ele>5.747555</ele>
        <time>2021-05-23T10:04:37.000Z</time>
      </trkpt>
      <trkpt lat="42.258053" lon="3.084846">
        <ele>5.638166</ele>
        <time>2021-05-23T10:04:42.000Z</time>
      </trkpt>
      <trkpt lat="42.258078" lon="3.084977">
        <ele>5.598333</ele>
        <time>2021-05-23T10:04:43.000Z</time>
      </trkpt>
      <trkpt lat="42.258024" lon="3.085019">
        <ele>5.580631</ele>
        <time>2021-05-23T10:04:44.000Z</time>
      </trkpt>
      <trkpt lat="42.257983" lon="3.085123">
        <ele>5.546162</ele>
        <time>2021-05-23T10:04:45.000Z</time>
      </trkpt>
      <trkpt lat="42.257972" lon="3.085179">
        <ele>5.528541</ele>
        <time>2021-05-23T10:04:45.000Z</time>
      </trkpt>
      <trkpt lat="42.257973" lon="3.085245">
        <ele>5.512008</ele>
        <time>2021-05-23T10:04:46.000Z</time>
      </trkpt>
      <trkpt lat="42.257999" lon="3.085292">
        <ele>5.49587</ele>
        <time>2021-05-23T10:04:46.000Z</time>
      </trkpt>
      <trkpt lat="42.258049" lon="3.08533">
        <ele>5.479684</ele>
        <time>2021-05-23T10:04:47.000Z</time>
      </trkpt>
      <trkpt lat="42.258073" lon="3.085338">
        <ele>5.463153</ele>
        <time>2021-05-23T10:04:47.000Z</time>
      </trkpt>
      <trkpt lat="42.258125" lon="3.085352">
        <ele>5.447203</ele>
        <time>2021-05-23T10:04:48.000Z</time>
      </trkpt>
      <trkpt lat="42.258158" lon="3.08533">
        <ele>5.43087</ele>
        <time>2021-05-23T10:04:48.000Z</time>
      </trkpt>
      <trkpt lat="42.259004" lon="3.088531">
        <ele>4.441124</ele>
        <time>2021-05-23T10:05:16.000Z</time>
      </trkpt>
      <trkpt lat="42.259436" lon="3.090138">
        <ele>3.997369</ele>
        <time>2021-05-23T10:05:30.000Z</time>
      </trkpt>
      <trkpt lat="42.25987" lon="3.09124">
        <ele>3.692074</ele>
        <time>2021-05-23T10:05:40.000Z</time>
      </trkpt>
      <trkpt lat="42.260181" lon="3.092232">
        <ele>3.450007</ele>
        <time>2021-05-23T10:05:49.000Z</time>
      </trkpt>
      <trkpt lat="42.260322" lon="3.092541">
        <ele>3.37091</ele>
        <time>2021-05-23T10:05:52.000Z</time>
      </trkpt>
      <trkpt lat="42.260764" lon="3.093117">
        <ele>3.184749</ele>
        <time>2021-05-23T10:05:59.000Z</time>
      </trkpt>
      <trkpt lat="42.260862" lon="3.093291">
        <ele>3.192701</ele>
        <time>2021-05-23T10:06:01.000Z</time>
      </trkpt>
      <trkpt lat="42.260878" lon="3.093456">
        <ele>3.214753</ele>
        <time>2021-05-23T10:06:02.000Z</time>
      </trkpt>
      <trkpt lat="42.260864" lon="3.093543">
        <ele>3.227877</ele>
        <time>2021-05-23T10:06:03.000Z</time>
      </trkpt>
      <trkpt lat="42.260881" lon="3.093447">
        <ele>3.240998</ele>
        <time>2021-05-23T10:06:04.000Z</time>
      </trkpt>
      <trkpt lat="42.260854" lon="3.093279">
        <ele>3.263059</ele>
        <time>2021-05-23T10:06:05.000Z</time>
      </trkpt>
      <trkpt lat="42.260775" lon="3.093111">
        <ele>3.291494</ele>
        <time>2021-05-23T10:06:07.000Z</time>
      </trkpt>
      <trkpt lat="42.260318" lon="3.092539">
        <ele>3.401923</ele>
        <time>2021-05-23T10:06:14.000Z</time>
      </trkpt>
      <trkpt lat="42.260194" lon="3.092231">
        <ele>3.448828</ele>
        <time>2021-05-23T10:06:17.000Z</time>
      </trkpt>
      <trkpt lat="42.259875" lon="3.091226">
        <ele>3.679696</ele>
        <time>2021-05-23T10:06:26.000Z</time>
      </trkpt>
      <trkpt lat="42.259441" lon="3.090131">
        <ele>3.992696</ele>
        <time>2021-05-23T10:06:36.000Z</time>
      </trkpt>
      <trkpt lat="42.259" lon="3.088525">
        <ele>4.436315</ele>
        <time>2021-05-23T10:06:50.000Z</time>
      </trkpt>
      <trkpt lat="42.258163" lon="3.085332">
        <ele>5.367331</ele>
        <time>2021-05-23T10:07:18.000Z</time>
      </trkpt>
      <trkpt lat="42.258197" lon="3.085283">
        <ele>5.385213</ele>
        <time>2021-05-23T10:07:19.000Z</time>
      </trkpt>
      <trkpt lat="42.258234" lon="3.085239">
        <ele>5.403475</ele>
        <time>2021-05-23T10:07:20.000Z</time>
      </trkpt>
      <trkpt lat="42.258247" lon="3.085182">
        <ele>5.421339</ele>
        <time>2021-05-23T10:07:20.000Z</time>
      </trkpt>
      <trkpt lat="42.258236" lon="3.085124">
        <ele>5.424737</ele>
        <time>2021-05-23T10:07:20.000Z</time>
      </trkpt>
      <trkpt lat="42.258104" lon="3.084976">
        <ele>5.435403</ele>
        <time>2021-05-23T10:07:22.000Z</time>
      </trkpt>
      <trkpt lat="42.258072" lon="3.084977">
        <ele>5.438263</ele>
        <time>2021-05-23T10:07:22.000Z</time>
      </trkpt>
      <trkpt lat="42.258032" lon="3.08501">
        <ele>5.441409</ele>
        <time>2021-05-23T10:07:23.000Z</time>
      </trkpt>
      <trkpt lat="42.257974" lon="3.085126">
        <ele>5.447517</ele>
        <time>2021-05-23T10:07:24.000Z</time>
      </trkpt>
      <trkpt lat="42.257977" lon="3.085182">
        <ele>5.450651</ele>
        <time>2021-05-23T10:07:24.000Z</time>
      </trkpt>
      <trkpt lat="42.257516" lon="3.085273">
        <ele>5.481401</ele>
        <time>2021-05-23T10:07:29.000Z</time>
      </trkpt>
      <trkpt lat="42.257068" lon="3.085374">
        <ele>5.511098</ele>
        <time>2021-05-23T10:07:34.000Z</time>
      </trkpt>
      <trkpt lat="42.256381" lon="3.085658">
        <ele>5.472101</ele>
        <time>2021-05-23T10:07:42.000Z</time>
      </trkpt>
      <trkpt lat="42.25614" lon="3.085799">
        <ele>5.409449</ele>
        <time>2021-05-23T10:07:45.000Z</time>
      </trkpt>
      <trkpt lat="42.255872" lon="3.086171">
        <ele>5.314037</ele>
        <time>2021-05-23T10:07:49.000Z</time>
      </trkpt>
      <trkpt lat="42.255463" lon="3.086983">
        <ele>5.134864</ele>
        <time>2021-05-23T10:07:57.000Z</time>
      </trkpt>
      <trkpt lat="42.255293" lon="3.087523">
        <ele>5.08073</ele>
        <time>2021-05-23T10:08:02.000Z</time>
      </trkpt>
      <trkpt lat="42.254375" lon="3.090214">
        <ele>5.033385</ele>
        <time>2021-05-23T10:08:26.000Z</time>
      </trkpt>
      <trkpt lat="42.254006" lon="3.091309">
        <ele>5.075028</ele>
        <time>2021-05-23T10:08:36.000Z</time>
      </trkpt>
      <trkpt lat="42.25337" lon="3.09306">
        <ele>4.927077</ele>
        <time>2021-05-23T10:08:52.000Z</time>
      </trkpt>
      <trkpt lat="42.252849" lon="3.094491">
        <ele>4.745874</ele>
        <time>2021-05-23T10:09:05.000Z</time>
      </trkpt>
      <trkpt lat="42.252833" lon="3.0945">
        <ele>4.743964</ele>
        <time>2021-05-23T10:09:05.000Z</time>
      </trkpt>
      <trkpt lat="42.25276" lon="3.094728">
        <ele>4.710653</ele>
        <time>2021-05-23T10:09:07.000Z</time>
      </trkpt>
      <trkpt lat="42.252518" lon="3.095411">
        <ele>4.612349</ele>
        <time>2021-05-23T10:09:13.000Z</time>
      </trkpt>
      <trkpt lat="42.252305" lon="3.095994">
        <ele>4.544463</ele>
        <time>2021-05-23T10:09:18.000Z</time>
      </trkpt>
      <trkpt lat="42.251983" lon="3.096891">
        <ele>4.765417</ele>
        <time>2021-05-23T10:09:26.000Z</time>
      </trkpt>
      <trkpt lat="42.251926" lon="3.097228">
        <ele>4.844058</ele>
        <time>2021-05-23T10:09:29.000Z</time>
      </trkpt>
      <trkpt lat="42.251902" lon="3.097715">
        <ele>4.95124</ele>
        <time>2021-05-23T10:09:33.000Z</time>
      </trkpt>
      <trkpt lat="42.251914" lon="3.097834">
        <ele>4.980343</ele>
        <time>2021-05-23T10:09:34.000Z</time>
      </trkpt>
      <trkpt lat="42.251907" lon="3.098247">
        <ele>5.073189</ele>
        <time>2021-05-23T10:09:37.000Z</time>
      </trkpt>
      <trkpt lat="42.251931" lon="3.098705">
        <ele>5.034001</ele>
        <time>2021-05-23T10:09:41.000Z</time>
      </trkpt>
      <trkpt lat="42.251926" lon="3.098711">
        <ele>5.033687</ele>
        <time>2021-05-23T10:09:41.000Z</time>
      </trkpt>
      <trkpt lat="42.251928" lon="3.099455">
        <ele>4.958123</ele>
        <time>2021-05-23T10:09:47.000Z</time>
      </trkpt>
      <trkpt lat="42.251948" lon="3.100121">
        <ele>4.890584</ele>
        <time>2021-05-23T10:09:52.000Z</time>
      </trkpt>
      <trkpt lat="42.251973" lon="3.100811">
        <ele>4.786053</ele>
        <time>2021-05-23T10:09:58.000Z</time>
      </trkpt>
      <trkpt lat="42.251985" lon="3.101301">
        <ele>4.593063</ele>
        <time>2021-05-23T10:10:02.000Z</time>
      </trkpt>
      <trkpt lat="42.252009" lon="3.101781">
        <ele>4.398091</ele>
        <time>2021-05-23T10:10:06.000Z</time>
      </trkpt>
      <trkpt lat="42.252035" lon="3.102769">
        <ele>3.998819</ele>
        <time>2021-05-23T10:10:14.000Z</time>
      </trkpt>
      <trkpt lat="42.252048" lon="3.103193">
        <ele>3.850797</ele>
        <time>2021-05-23T10:10:17.000Z</time>
      </trkpt>
      <trkpt lat="42.252062" lon="3.103629">
        <ele>3.856264</ele>
        <time>2021-05-23T10:10:21.000Z</time>
      </trkpt>
      <trkpt lat="42.25199" lon="3.10384">
        <ele>3.859197</ele>
        <time>2021-05-23T10:10:23.000Z</time>
      </trkpt>
      <trkpt lat="42.251916" lon="3.103952">
        <ele>3.861087</ele>
        <time>2021-05-23T10:10:24.000Z</time>
      </trkpt>
      <trkpt lat="42.251786" lon="3.104069">
        <ele>3.863727</ele>
        <time>2021-05-23T10:10:26.000Z</time>
      </trkpt>
      <trkpt lat="42.250754" lon="3.104505">
        <ele>3.914269</ele>
        <time>2021-05-23T10:10:38.000Z</time>
      </trkpt>
      <trkpt lat="42.250313" lon="3.104772">
        <ele>4.081085</ele>
        <time>2021-05-23T10:10:43.000Z</time>
      </trkpt>
      <trkpt lat="42.250145" lon="3.104788">
        <ele>4.138206</ele>
        <time>2021-05-23T10:10:45.000Z</time>
      </trkpt>
      <trkpt lat="42.250028" lon="3.104733">
        <ele>4.183612</ele>
        <time>2021-05-23T10:10:46.000Z</time>
      </trkpt>
      <trkpt lat="42.24997" lon="3.10468">
        <ele>4.205695</ele>
        <time>2021-05-23T10:10:47.000Z</time>
      </trkpt>
      <trkpt lat="42.24992" lon="3.104638">
        <ele>4.222343</ele>
        <time>2021-05-23T10:10:48.000Z</time>
      </trkpt>
      <trkpt lat="42.249811" lon="3.104513">
        <ele>4.272961</ele>
        <time>2021-05-23T10:10:50.000Z</time>
      </trkpt>
      <trkpt lat="42.249413" lon="3.10425">
        <ele>4.425433</ele>
        <time>2021-05-23T10:10:55.000Z</time>
      </trkpt>
      <trkpt lat="42.249414" lon="3.104238">
        <ele>4.427241</ele>
        <time>2021-05-23T10:10:55.000Z</time>
      </trkpt>
      <trkpt lat="42.249357" lon="3.104223">
        <ele>4.449695</ele>
        <time>2021-05-23T10:10:56.000Z</time>
      </trkpt>
      <trkpt lat="42.249071" lon="3.104101">
        <ele>4.531139</ele>
        <time>2021-05-23T10:10:59.000Z</time>
      </trkpt>
      <trkpt lat="42.248734" lon="3.104015">
        <ele>4.600267</ele>
        <time>2021-05-23T10:11:03.000Z</time>
      </trkpt>
      <trkpt lat="42.248721" lon="3.104006">
        <ele>4.600863</ele>
        <time>2021-05-23T10:11:03.000Z</time>
      </trkpt>
      <trkpt lat="42.248674" lon="3.104006">
        <ele>4.61201</ele>
        <time>2021-05-23T10:11:04.000Z</time>
      </trkpt>
      <trkpt lat="42.248152" lon="3.104024">
        <ele>4.713133</ele>
        <time>2021-05-23T10:11:10.000Z</time>
      </trkpt>
      <trkpt lat="42.248132" lon="3.104025">
        <ele>4.717523</ele>
        <time>2021-05-23T10:11:10.000Z</time>
      </trkpt>
      <trkpt lat="42.248101" lon="3.104036">
        <ele>4.726511</ele>
        <time>2021-05-23T10:11:10.000Z</time>
      </trkpt>
      <trkpt lat="42.24747" lon="3.104323">
        <ele>4.859253</ele>
        <time>2021-05-23T10:11:17.000Z</time>
      </trkpt>
      <trkpt lat="42.247434" lon="3.104345">
        <ele>4.861773</ele>
        <time>2021-05-23T10:11:17.000Z</time>
      </trkpt>
      <trkpt lat="42.247394" lon="3.104372">
        <ele>4.863606</ele>
        <time>2021-05-23T10:11:17.000Z</time>
      </trkpt>
      <trkpt lat="42.247012" lon="3.104702">
        <ele>4.883066</ele>
        <time>2021-05-23T10:11:22.000Z</time>
      </trkpt>
      <trkpt lat="42.246979" lon="3.104731">
        <ele>4.884925</ele>
        <time>2021-05-23T10:11:22.000Z</time>
      </trkpt>
      <trkpt lat="42.246935" lon="3.104779">
        <ele>4.887062</ele>
        <time>2021-05-23T10:11:23.000Z</time>
      </trkpt>
      <trkpt lat="42.246882" lon="3.104826">
        <ele>4.889656</ele>
        <time>2021-05-23T10:11:24.000Z</time>
      </trkpt>
      <trkpt lat="42.246806" lon="3.104921">
        <ele>4.894417</ele>
        <time>2021-05-23T10:11:25.000Z</time>
      </trkpt>
      <trkpt lat="42.246795" lon="3.104925">
        <ele>4.894443</ele>
        <time>2021-05-23T10:11:25.000Z</time>
      </trkpt>
      <trkpt lat="42.246771" lon="3.104956">
        <ele>4.895933</ele>
        <time>2021-05-23T10:11:25.000Z</time>
      </trkpt>
      <trkpt lat="42.246491" lon="3.105419">
        <ele>4.914175</ele>
        <time>2021-05-23T10:11:30.000Z</time>
      </trkpt>
      <trkpt lat="42.246397" lon="3.105552">
        <ele>4.920033</ele>
        <time>2021-05-23T10:11:32.000Z</time>
      </trkpt>
      <trkpt lat="42.246319" lon="3.105682">
        <ele>4.92513</ele>
        <time>2021-05-23T10:11:33.000Z</time>
      </trkpt>
      <trkpt lat="42.245483" lon="3.106761">
        <ele>4.596614</ele>
        <time>2021-05-23T10:11:46.000Z</time>
      </trkpt>
      <trkpt lat="42.244775" lon="3.107496">
        <ele>4.260427</ele>
        <time>2021-05-23T10:11:56.000Z</time>
      </trkpt>
      <trkpt lat="42.244538" lon="3.107776">
        <ele>4.120596</ele>
        <time>2021-05-23T10:12:00.000Z</time>
      </trkpt>
      <trkpt lat="42.244258" lon="3.108333">
        <ele>3.890694</ele>
        <time>2021-05-23T10:12:06.000Z</time>
      </trkpt>
      <trkpt lat="42.243993" lon="3.10899">
        <ele>3.639616</ele>
        <time>2021-05-23T10:12:12.000Z</time>
      </trkpt>
      <trkpt lat="42.243189" lon="3.11096">
        <ele>3.003671</ele>
        <time>2021-05-23T10:12:31.000Z</time>
      </trkpt>
      <trkpt lat="42.242749" lon="3.111953">
        <ele>2.747527</ele>
        <time>2021-05-23T10:12:41.000Z</time>
      </trkpt>
      <trkpt lat="42.242331" lon="3.112965">
        <ele>2.590469</ele>
        <time>2021-05-23T10:12:51.000Z</time>
      </trkpt>
      <trkpt lat="42.241294" lon="3.115447">
        <ele>2.437059</ele>
        <time>2021-05-23T10:13:14.000Z</time>
      </trkpt>
      <trkpt lat="42.240648" lon="3.117021">
        <ele>2.038802</ele>
        <time>2021-05-23T10:13:29.000Z</time>
      </trkpt>
      <trkpt lat="42.240208" lon="3.118078">
        <ele>1.717455</ele>
        <time>2021-05-23T10:13:39.000Z</time>
      </trkpt>
      <trkpt lat="42.239677" lon="3.119369">
        <ele>1.753608</ele>
        <time>2021-05-23T10:13:51.000Z</time>
      </trkpt>
      <trkpt lat="42.239452" lon="3.119885">
        <ele>1.768265</ele>
        <time>2021-05-23T10:13:56.000Z</time>
      </trkpt>
      <trkpt lat="42.239297" lon="3.120252">
        <ele>1.874278</ele>
        <time>2021-05-23T10:13:59.000Z</time>
      </trkpt>
      <trkpt lat="42.238889" lon="3.121192">
        <ele>2.503232</ele>
        <time>2021-05-23T10:14:08.000Z</time>
      </trkpt>
      <trkpt lat="42.238804" lon="3.121408">
        <ele>2.638004</ele>
        <time>2021-05-23T10:14:10.000Z</time>
      </trkpt>
      <trkpt lat="42.238706" lon="3.121642">
        <ele>2.803248</ele>
        <time>2021-05-23T10:14:12.000Z</time>
      </trkpt>
      <trkpt lat="42.238634" lon="3.121833">
        <ele>2.928913</ele>
        <time>2021-05-23T10:14:14.000Z</time>
      </trkpt>
      <trkpt lat="42.237947" lon="3.123446">
        <ele>3.322203</ele>
        <time>2021-05-23T10:14:29.000Z</time>
      </trkpt>
      <trkpt lat="42.23774" lon="3.124015">
        <ele>3.389244</ele>
        <time>2021-05-23T10:14:34.000Z</time>
      </trkpt>
      <trkpt lat="42.237716" lon="3.124178">
        <ele>3.404854</ele>
        <time>2021-05-23T10:14:35.000Z</time>
      </trkpt>
      <trkpt lat="42.237751" lon="3.124458">
        <ele>3.40843</ele>
        <time>2021-05-23T10:14:37.000Z</time>
      </trkpt>
      <trkpt lat="42.23804" lon="3.124764">
        <ele>3.290741</ele>
        <time>2021-05-23T10:14:41.000Z</time>
      </trkpt>
      <trkpt lat="42.23919" lon="3.125635">
        <ele>2.858299</ele>
        <time>2021-05-23T10:14:56.000Z</time>
      </trkpt>
      <trkpt lat="42.239306" lon="3.125718">
        <ele>2.826585</ele>
        <time>2021-05-23T10:14:57.000Z</time>
      </trkpt>
      <trkpt lat="42.239732" lon="3.12605">
        <ele>2.724525</ele>
        <time>2021-05-23T10:15:02.000Z</time>
      </trkpt>
      <trkpt lat="42.239863" lon="3.126147">
        <ele>2.693345</ele>
        <time>2021-05-23T10:15:04.000Z</time>
      </trkpt>
      <trkpt lat="42.241481" lon="3.127449">
        <ele>2.493141</ele>
        <time>2021-05-23T10:15:25.000Z</time>
      </trkpt>
      <trkpt lat="42.241583" lon="3.127543">
        <ele>2.496556</ele>
        <time>2021-05-23T10:15:26.000Z</time>
      </trkpt>
      <trkpt lat="42.241647" lon="3.127595">
        <ele>2.498584</ele>
        <time>2021-05-23T10:15:27.000Z</time>
      </trkpt>
      <trkpt lat="42.24175" lon="3.127664">
        <ele>2.501698</ele>
        <time>2021-05-23T10:15:28.000Z</time>
      </trkpt>
      <trkpt lat="42.243332" lon="3.129079">
        <ele>2.52259970861</ele>
        <time>2021-05-23T10:15:49.000Z</time>
      </trkpt>
      <trkpt lat="42.243456" lon="3.129195">
        <ele>2.5242612918</ele>
        <time>2021-05-23T10:15:51.000Z</time>
      </trkpt>
      <trkpt lat="42.24344" lon="3.129181">
        <ele>2.52447129657</ele>
        <time>2021-05-23T10:15:51.000Z</time>
      </trkpt>
    </trkseg>
  </trk>
</gpx>

<!--
Performance optimized by W3 Total Cache. Learn more: https://www.boldgrid.com/w3-total-cache/?utm_source=w3tc&utm_medium=footer_comment&utm_campaign=free_plugin

Page Caching using Disk: Enhanced{w3tc_pagecache_reject_reason} 

Served from: www.aquabike.world @ 2026-05-10 05:44:34 by W3 Total Cache
-->